<?xml version="1.0" encoding="UTF-8" standalone="no" ?>
<gpx xmlns="http://www.topografix.com/GPX/1/1" xmlns:xsi="http://www.w3.org/2001/XMLSchema-instance" xsi:schemaLocation="http://www.topografix.com/GPX/1/1 http://www.topografix.com/GPX/1/1/gpx.xsd" version="1.1" creator="VisuGPX - https://www.visugpx.com">
  <metadata>
    <name>Bormes Cote</name>
    <desc><![CDATA[Bientot]]></desc>
  </metadata>
  <trk>
    <name><![CDATA[12797928-VTT Bormes 2]]></name>
    <trkseg>
      <trkpt lat="43.14974" lon="6.29389">
        <ele>71</ele>
        <time>2021-12-01T09:25:19Z</time>
      </trkpt>
      <trkpt lat="43.14973" lon="6.29381">
        <ele>71</ele>
        <time>2021-12-01T09:25:20Z</time>
      </trkpt>
      <trkpt lat="43.1496" lon="6.29384">
        <ele>69</ele>
        <time>2021-12-01T09:25:22Z</time>
      </trkpt>
      <trkpt lat="43.14939" lon="6.29384">
        <ele>67</ele>
        <time>2021-12-01T09:25:26Z</time>
      </trkpt>
      <trkpt lat="43.14928" lon="6.29375">
        <ele>67</ele>
        <time>2021-12-01T09:25:28Z</time>
      </trkpt>
      <trkpt lat="43.1492" lon="6.29361">
        <ele>66</ele>
        <time>2021-12-01T09:25:31Z</time>
      </trkpt>
      <trkpt lat="43.14899" lon="6.29295">
        <ele>67</ele>
        <time>2021-12-01T09:25:40Z</time>
      </trkpt>
      <trkpt lat="43.14888" lon="6.29272">
        <ele>67</ele>
        <time>2021-12-01T09:25:44Z</time>
      </trkpt>
      <trkpt lat="43.14872" lon="6.29249">
        <ele>67</ele>
        <time>2021-12-01T09:25:48Z</time>
      </trkpt>
      <trkpt lat="43.14842" lon="6.29224">
        <ele>67</ele>
        <time>2021-12-01T09:25:54Z</time>
      </trkpt>
      <trkpt lat="43.14816" lon="6.29216">
        <ele>67</ele>
        <time>2021-12-01T09:25:59Z</time>
      </trkpt>
      <trkpt lat="43.14781" lon="6.29216">
        <ele>68</ele>
        <time>2021-12-01T09:26:05Z</time>
      </trkpt>
      <trkpt lat="43.14751" lon="6.2923">
        <ele>67</ele>
        <time>2021-12-01T09:26:11Z</time>
      </trkpt>
      <trkpt lat="43.14723" lon="6.29251">
        <ele>68</ele>
        <time>2021-12-01T09:26:16Z</time>
      </trkpt>
      <trkpt lat="43.1469" lon="6.29282">
        <ele>66</ele>
        <time>2021-12-01T09:26:23Z</time>
      </trkpt>
      <trkpt lat="43.14639" lon="6.29274">
        <ele>69</ele>
        <time>2021-12-01T09:26:33Z</time>
      </trkpt>
      <trkpt lat="43.14559" lon="6.29294">
        <ele>65</ele>
        <time>2021-12-01T09:26:47Z</time>
      </trkpt>
      <trkpt lat="43.14534" lon="6.29286">
        <ele>65</ele>
        <time>2021-12-01T09:26:52Z</time>
      </trkpt>
      <trkpt lat="43.14525" lon="6.29271">
        <ele>66</ele>
        <time>2021-12-01T09:26:54Z</time>
      </trkpt>
      <trkpt lat="43.14514" lon="6.29223">
        <ele>72</ele>
        <time>2021-12-01T09:27:01Z</time>
      </trkpt>
      <trkpt lat="43.14508" lon="6.29213">
        <ele>72</ele>
        <time>2021-12-01T09:27:02Z</time>
      </trkpt>
      <trkpt lat="43.14497" lon="6.29209">
        <ele>73</ele>
        <time>2021-12-01T09:27:04Z</time>
      </trkpt>
      <trkpt lat="43.14486" lon="6.29217">
        <ele>73</ele>
        <time>2021-12-01T09:27:07Z</time>
      </trkpt>
      <trkpt lat="43.14471" lon="6.29259">
        <ele>68</ele>
        <time>2021-12-01T09:27:13Z</time>
      </trkpt>
      <trkpt lat="43.14462" lon="6.29277">
        <ele>66</ele>
        <time>2021-12-01T09:27:15Z</time>
      </trkpt>
      <trkpt lat="43.1445" lon="6.29287">
        <ele>65</ele>
        <time>2021-12-01T09:27:18Z</time>
      </trkpt>
      <trkpt lat="43.14437" lon="6.2929">
        <ele>65</ele>
        <time>2021-12-01T09:27:20Z</time>
      </trkpt>
      <trkpt lat="43.14424" lon="6.2929">
        <ele>65</ele>
        <time>2021-12-01T09:27:23Z</time>
      </trkpt>
      <trkpt lat="43.14335" lon="6.29234">
        <ele>66</ele>
        <time>2021-12-01T09:27:40Z</time>
      </trkpt>
      <trkpt lat="43.1431" lon="6.29214">
        <ele>66</ele>
        <time>2021-12-01T09:27:45Z</time>
      </trkpt>
      <trkpt lat="43.14302" lon="6.29199">
        <ele>66</ele>
        <time>2021-12-01T09:27:48Z</time>
      </trkpt>
      <trkpt lat="43.14298" lon="6.29182">
        <ele>67</ele>
        <time>2021-12-01T09:27:50Z</time>
      </trkpt>
      <trkpt lat="43.14297" lon="6.29103">
        <ele>75</ele>
        <time>2021-12-01T09:28:00Z</time>
      </trkpt>
      <trkpt lat="43.14293" lon="6.29083">
        <ele>76</ele>
        <time>2021-12-01T09:28:03Z</time>
      </trkpt>
      <trkpt lat="43.14284" lon="6.29075">
        <ele>76</ele>
        <time>2021-12-01T09:28:05Z</time>
      </trkpt>
      <trkpt lat="43.14275" lon="6.29077">
        <ele>74</ele>
        <time>2021-12-01T09:28:06Z</time>
      </trkpt>
      <trkpt lat="43.14257" lon="6.29101">
        <ele>68</ele>
        <time>2021-12-01T09:28:11Z</time>
      </trkpt>
      <trkpt lat="43.14239" lon="6.2911">
        <ele>64</ele>
        <time>2021-12-01T09:28:14Z</time>
      </trkpt>
      <trkpt lat="43.14207" lon="6.29099">
        <ele>59</ele>
        <time>2021-12-01T09:28:20Z</time>
      </trkpt>
      <trkpt lat="43.14186" lon="6.29077">
        <ele>57</ele>
        <time>2021-12-01T09:28:25Z</time>
      </trkpt>
      <trkpt lat="43.1417" lon="6.29052">
        <ele>57</ele>
        <time>2021-12-01T09:28:29Z</time>
      </trkpt>
      <trkpt lat="43.14159" lon="6.29029">
        <ele>57</ele>
        <time>2021-12-01T09:28:33Z</time>
      </trkpt>
      <trkpt lat="43.14137" lon="6.28972">
        <ele>59</ele>
        <time>2021-12-01T09:28:41Z</time>
      </trkpt>
      <trkpt lat="43.14126" lon="6.28955">
        <ele>59</ele>
        <time>2021-12-01T09:28:44Z</time>
      </trkpt>
      <trkpt lat="43.14108" lon="6.28949">
        <ele>57</ele>
        <time>2021-12-01T09:28:47Z</time>
      </trkpt>
      <trkpt lat="43.14064" lon="6.28962">
        <ele>48</ele>
        <time>2021-12-01T09:28:55Z</time>
      </trkpt>
      <trkpt lat="43.14046" lon="6.28958">
        <ele>47</ele>
        <time>2021-12-01T09:28:59Z</time>
      </trkpt>
      <trkpt lat="43.14016" lon="6.28927">
        <ele>46</ele>
        <time>2021-12-01T09:29:05Z</time>
      </trkpt>
      <trkpt lat="43.14006" lon="6.28922">
        <ele>45</ele>
        <time>2021-12-01T09:29:07Z</time>
      </trkpt>
      <trkpt lat="43.13998" lon="6.28923">
        <ele>44</ele>
        <time>2021-12-01T09:29:09Z</time>
      </trkpt>
      <trkpt lat="43.1399" lon="6.28931">
        <ele>43</ele>
        <time>2021-12-01T09:29:10Z</time>
      </trkpt>
      <trkpt lat="43.13939" lon="6.28905">
        <ele>39</ele>
        <time>2021-12-01T09:29:20Z</time>
      </trkpt>
      <trkpt lat="43.13919" lon="6.28901">
        <ele>36</ele>
        <time>2021-12-01T09:29:24Z</time>
      </trkpt>
      <trkpt lat="43.139" lon="6.28906">
        <ele>38</ele>
        <time>2021-12-01T09:29:27Z</time>
      </trkpt>
      <trkpt lat="43.13892" lon="6.28911">
        <ele>39</ele>
        <time>2021-12-01T09:29:29Z</time>
      </trkpt>
      <trkpt lat="43.1387" lon="6.28906">
        <ele>41</ele>
        <time>2021-12-01T09:29:33Z</time>
      </trkpt>
      <trkpt lat="43.13861" lon="6.28891">
        <ele>41</ele>
        <time>2021-12-01T09:29:35Z</time>
      </trkpt>
      <trkpt lat="43.13846" lon="6.28852">
        <ele>39</ele>
        <time>2021-12-01T09:29:41Z</time>
      </trkpt>
      <trkpt lat="43.13838" lon="6.28846">
        <ele>38</ele>
        <time>2021-12-01T09:29:43Z</time>
      </trkpt>
      <trkpt lat="43.13838" lon="6.28834">
        <ele>37</ele>
        <time>2021-12-01T09:29:44Z</time>
      </trkpt>
      <trkpt lat="43.13804" lon="6.28738">
        <ele>35</ele>
        <time>2021-12-01T09:29:58Z</time>
      </trkpt>
      <trkpt lat="43.13792" lon="6.28794">
        <ele>36</ele>
        <time>2021-12-01T09:30:06Z</time>
      </trkpt>
      <trkpt lat="43.13795" lon="6.28836">
        <ele>38</ele>
        <time>2021-12-01T09:30:11Z</time>
      </trkpt>
      <trkpt lat="43.13799" lon="6.28887">
        <ele>43</ele>
        <time>2021-12-01T09:30:18Z</time>
      </trkpt>
      <trkpt lat="43.13798" lon="6.28905">
        <ele>45</ele>
        <time>2021-12-01T09:30:20Z</time>
      </trkpt>
      <trkpt lat="43.138" lon="6.28936">
        <ele>49</ele>
        <time>2021-12-01T09:30:24Z</time>
      </trkpt>
      <trkpt lat="43.13789" lon="6.28992">
        <ele>57</ele>
        <time>2021-12-01T09:30:32Z</time>
      </trkpt>
      <trkpt lat="43.13793" lon="6.29033">
        <ele>63</ele>
        <time>2021-12-01T09:30:37Z</time>
      </trkpt>
      <trkpt lat="43.13783" lon="6.29062">
        <ele>69</ele>
        <time>2021-12-01T09:30:41Z</time>
      </trkpt>
      <trkpt lat="43.13783" lon="6.29089">
        <ele>73</ele>
        <time>2021-12-01T09:30:45Z</time>
      </trkpt>
      <trkpt lat="43.13754" lon="6.29151">
        <ele>83</ele>
        <time>2021-12-01T09:30:54Z</time>
      </trkpt>
      <trkpt lat="43.13741" lon="6.29173">
        <ele>84</ele>
        <time>2021-12-01T09:30:58Z</time>
      </trkpt>
      <trkpt lat="43.13735" lon="6.29202">
        <ele>83</ele>
        <time>2021-12-01T09:31:02Z</time>
      </trkpt>
      <trkpt lat="43.13744" lon="6.29229">
        <ele>85</ele>
        <time>2021-12-01T09:31:06Z</time>
      </trkpt>
      <trkpt lat="43.13764" lon="6.29275">
        <ele>85</ele>
        <time>2021-12-01T09:31:13Z</time>
      </trkpt>
      <trkpt lat="43.13774" lon="6.29312">
        <ele>86</ele>
        <time>2021-12-01T09:31:18Z</time>
      </trkpt>
      <trkpt lat="43.13772" lon="6.29345">
        <ele>87</ele>
        <time>2021-12-01T09:31:22Z</time>
      </trkpt>
      <trkpt lat="43.13764" lon="6.29366">
        <ele>88</ele>
        <time>2021-12-01T09:31:25Z</time>
      </trkpt>
      <trkpt lat="43.13756" lon="6.29406">
        <ele>91</ele>
        <time>2021-12-01T09:31:30Z</time>
      </trkpt>
      <trkpt lat="43.13756" lon="6.29464">
        <ele>92</ele>
        <time>2021-12-01T09:31:38Z</time>
      </trkpt>
      <trkpt lat="43.13788" lon="6.29471">
        <ele>88</ele>
        <time>2021-12-01T09:31:44Z</time>
      </trkpt>
      <trkpt lat="43.13812" lon="6.29535">
        <ele>91</ele>
        <time>2021-12-01T09:31:53Z</time>
      </trkpt>
      <trkpt lat="43.13823" lon="6.29587">
        <ele>99</ele>
        <time>2021-12-01T09:32:00Z</time>
      </trkpt>
      <trkpt lat="43.13836" lon="6.29594">
        <ele>99</ele>
        <time>2021-12-01T09:32:03Z</time>
      </trkpt>
      <trkpt lat="43.13876" lon="6.29593">
        <ele>96</ele>
        <time>2021-12-01T09:32:10Z</time>
      </trkpt>
      <trkpt lat="43.13898" lon="6.29615">
        <ele>97</ele>
        <time>2021-12-01T09:32:15Z</time>
      </trkpt>
      <trkpt lat="43.13925" lon="6.29634">
        <ele>96</ele>
        <time>2021-12-01T09:32:20Z</time>
      </trkpt>
      <trkpt lat="43.13926" lon="6.29638">
        <ele>96</ele>
        <time>2021-12-01T09:32:21Z</time>
      </trkpt>
      <trkpt lat="43.13928" lon="6.29653">
        <ele>96</ele>
        <time>2021-12-01T09:32:22Z</time>
      </trkpt>
      <trkpt lat="43.13913" lon="6.29676">
        <ele>99</ele>
        <time>2021-12-01T09:32:26Z</time>
      </trkpt>
      <trkpt lat="43.13888" lon="6.29697">
        <ele>99</ele>
        <time>2021-12-01T09:32:32Z</time>
      </trkpt>
      <trkpt lat="43.13843" lon="6.29702">
        <ele>105</ele>
        <time>2021-12-01T09:32:40Z</time>
      </trkpt>
      <trkpt lat="43.1379" lon="6.2973">
        <ele>109</ele>
        <time>2021-12-01T09:32:50Z</time>
      </trkpt>
      <trkpt lat="43.13747" lon="6.2977">
        <ele>112</ele>
        <time>2021-12-01T09:32:59Z</time>
      </trkpt>
      <trkpt lat="43.13746" lon="6.29796">
        <ele>109</ele>
        <time>2021-12-01T09:33:02Z</time>
      </trkpt>
      <trkpt lat="43.13714" lon="6.29863">
        <ele>100</ele>
        <time>2021-12-01T09:33:13Z</time>
      </trkpt>
      <trkpt lat="43.13693" lon="6.29907">
        <ele>99</ele>
        <time>2021-12-01T09:33:20Z</time>
      </trkpt>
      <trkpt lat="43.13669" lon="6.29992">
        <ele>106</ele>
        <time>2021-12-01T09:33:32Z</time>
      </trkpt>
      <trkpt lat="43.13645" lon="6.30043">
        <ele>112</ele>
        <time>2021-12-01T09:33:39Z</time>
      </trkpt>
      <trkpt lat="43.1362" lon="6.30084">
        <ele>119</ele>
        <time>2021-12-01T09:33:46Z</time>
      </trkpt>
      <trkpt lat="43.13588" lon="6.30118">
        <ele>124</ele>
        <time>2021-12-01T09:33:54Z</time>
      </trkpt>
      <trkpt lat="43.13554" lon="6.3015">
        <ele>125</ele>
        <time>2021-12-01T09:34:01Z</time>
      </trkpt>
      <trkpt lat="43.13482" lon="6.30184">
        <ele>121</ele>
        <time>2021-12-01T09:34:14Z</time>
      </trkpt>
      <trkpt lat="43.13449" lon="6.30231">
        <ele>119</ele>
        <time>2021-12-01T09:34:23Z</time>
      </trkpt>
      <trkpt lat="43.13419" lon="6.30259">
        <ele>120</ele>
        <time>2021-12-01T09:34:29Z</time>
      </trkpt>
      <trkpt lat="43.13399" lon="6.30285">
        <ele>119</ele>
        <time>2021-12-01T09:34:34Z</time>
      </trkpt>
      <trkpt lat="43.13393" lon="6.30296">
        <ele>119</ele>
        <time>2021-12-01T09:34:36Z</time>
      </trkpt>
      <trkpt lat="43.13389" lon="6.30308">
        <ele>119</ele>
        <time>2021-12-01T09:34:38Z</time>
      </trkpt>
      <trkpt lat="43.13368" lon="6.30337">
        <ele>123</ele>
        <time>2021-12-01T09:34:43Z</time>
      </trkpt>
      <trkpt lat="43.13342" lon="6.30366">
        <ele>126</ele>
        <time>2021-12-01T09:34:49Z</time>
      </trkpt>
      <trkpt lat="43.13319" lon="6.3038">
        <ele>128</ele>
        <time>2021-12-01T09:34:54Z</time>
      </trkpt>
      <trkpt lat="43.13295" lon="6.30381">
        <ele>131</ele>
        <time>2021-12-01T09:34:58Z</time>
      </trkpt>
      <trkpt lat="43.13277" lon="6.30387">
        <ele>133</ele>
        <time>2021-12-01T09:35:01Z</time>
      </trkpt>
      <trkpt lat="43.1326" lon="6.30397">
        <ele>136</ele>
        <time>2021-12-01T09:35:04Z</time>
      </trkpt>
      <trkpt lat="43.13247" lon="6.3042">
        <ele>138</ele>
        <time>2021-12-01T09:35:08Z</time>
      </trkpt>
      <trkpt lat="43.13215" lon="6.30544">
        <ele>133</ele>
        <time>2021-12-01T09:35:25Z</time>
      </trkpt>
      <trkpt lat="43.13166" lon="6.30602">
        <ele>138</ele>
        <time>2021-12-01T09:35:37Z</time>
      </trkpt>
      <trkpt lat="43.1312" lon="6.30639">
        <ele>139</ele>
        <time>2021-12-01T09:35:46Z</time>
      </trkpt>
      <trkpt lat="43.13078" lon="6.30659">
        <ele>143</ele>
        <time>2021-12-01T09:35:54Z</time>
      </trkpt>
      <trkpt lat="43.13064" lon="6.30665">
        <ele>144</ele>
        <time>2021-12-01T09:35:57Z</time>
      </trkpt>
      <trkpt lat="43.13011" lon="6.30708">
        <ele>144</ele>
        <time>2021-12-01T09:36:08Z</time>
      </trkpt>
      <trkpt lat="43.12984" lon="6.30765">
        <ele>142</ele>
        <time>2021-12-01T09:36:17Z</time>
      </trkpt>
      <trkpt lat="43.12972" lon="6.30804">
        <ele>138</ele>
        <time>2021-12-01T09:36:22Z</time>
      </trkpt>
      <trkpt lat="43.12951" lon="6.3083">
        <ele>135</ele>
        <time>2021-12-01T09:36:27Z</time>
      </trkpt>
      <trkpt lat="43.12919" lon="6.309">
        <ele>133</ele>
        <time>2021-12-01T09:36:38Z</time>
      </trkpt>
      <trkpt lat="43.12831" lon="6.3099">
        <ele>127</ele>
        <time>2021-12-01T09:36:57Z</time>
      </trkpt>
      <trkpt lat="43.12789" lon="6.30997">
        <ele>129</ele>
        <time>2021-12-01T09:37:05Z</time>
      </trkpt>
      <trkpt lat="43.12758" lon="6.30993">
        <ele>130</ele>
        <time>2021-12-01T09:37:10Z</time>
      </trkpt>
      <trkpt lat="43.12728" lon="6.31005">
        <ele>131</ele>
        <time>2021-12-01T09:37:16Z</time>
      </trkpt>
      <trkpt lat="43.12685" lon="6.31006">
        <ele>132</ele>
        <time>2021-12-01T09:37:24Z</time>
      </trkpt>
      <trkpt lat="43.12584" lon="6.31035">
        <ele>136</ele>
        <time>2021-12-01T09:37:42Z</time>
      </trkpt>
      <trkpt lat="43.12582" lon="6.31039">
        <ele>136</ele>
        <time>2021-12-01T09:37:43Z</time>
      </trkpt>
      <trkpt lat="43.12542" lon="6.31105">
        <ele>142</ele>
        <time>2021-12-01T09:37:54Z</time>
      </trkpt>
      <trkpt lat="43.12485" lon="6.31153">
        <ele>152</ele>
        <time>2021-12-01T09:38:06Z</time>
      </trkpt>
      <trkpt lat="43.12457" lon="6.31169">
        <ele>153</ele>
        <time>2021-12-01T09:38:11Z</time>
      </trkpt>
      <trkpt lat="43.12458" lon="6.31192">
        <ele>151</ele>
        <time>2021-12-01T09:38:14Z</time>
      </trkpt>
      <trkpt lat="43.12461" lon="6.3122">
        <ele>148</ele>
        <time>2021-12-01T09:38:18Z</time>
      </trkpt>
      <trkpt lat="43.12461" lon="6.31294">
        <ele>140</ele>
        <time>2021-12-01T09:38:27Z</time>
      </trkpt>
      <trkpt lat="43.12457" lon="6.31322">
        <ele>137</ele>
        <time>2021-12-01T09:38:31Z</time>
      </trkpt>
      <trkpt lat="43.12418" lon="6.31444">
        <ele>132</ele>
        <time>2021-12-01T09:38:48Z</time>
      </trkpt>
      <trkpt lat="43.12412" lon="6.31463">
        <ele>131</ele>
        <time>2021-12-01T09:38:51Z</time>
      </trkpt>
      <trkpt lat="43.12396" lon="6.3152">
        <ele>127</ele>
        <time>2021-12-01T09:38:59Z</time>
      </trkpt>
      <trkpt lat="43.12395" lon="6.31533">
        <ele>126</ele>
        <time>2021-12-01T09:39:01Z</time>
      </trkpt>
      <trkpt lat="43.12382" lon="6.31535">
        <ele>125</ele>
        <time>2021-12-01T09:39:03Z</time>
      </trkpt>
      <trkpt lat="43.1237" lon="6.31536">
        <ele>123</ele>
        <time>2021-12-01T09:39:05Z</time>
      </trkpt>
      <trkpt lat="43.12341" lon="6.31556">
        <ele>121</ele>
        <time>2021-12-01T09:39:11Z</time>
      </trkpt>
      <trkpt lat="43.12318" lon="6.31565">
        <ele>119</ele>
        <time>2021-12-01T09:39:15Z</time>
      </trkpt>
      <trkpt lat="43.12278" lon="6.31577">
        <ele>115</ele>
        <time>2021-12-01T09:39:22Z</time>
      </trkpt>
      <trkpt lat="43.12256" lon="6.3158">
        <ele>113</ele>
        <time>2021-12-01T09:39:26Z</time>
      </trkpt>
      <trkpt lat="43.12239" lon="6.31593">
        <ele>110</ele>
        <time>2021-12-01T09:39:30Z</time>
      </trkpt>
      <trkpt lat="43.12227" lon="6.31599">
        <ele>108</ele>
        <time>2021-12-01T09:39:32Z</time>
      </trkpt>
      <trkpt lat="43.12207" lon="6.31599">
        <ele>106</ele>
        <time>2021-12-01T09:39:36Z</time>
      </trkpt>
      <trkpt lat="43.12187" lon="6.31603">
        <ele>104</ele>
        <time>2021-12-01T09:39:39Z</time>
      </trkpt>
      <trkpt lat="43.12173" lon="6.316">
        <ele>102</ele>
        <time>2021-12-01T09:39:42Z</time>
      </trkpt>
      <trkpt lat="43.12163" lon="6.31594">
        <ele>102</ele>
        <time>2021-12-01T09:39:44Z</time>
      </trkpt>
      <trkpt lat="43.1215" lon="6.31593">
        <ele>100</ele>
        <time>2021-12-01T09:39:46Z</time>
      </trkpt>
      <trkpt lat="43.12125" lon="6.31596">
        <ele>96</ele>
        <time>2021-12-01T09:39:51Z</time>
      </trkpt>
      <trkpt lat="43.12112" lon="6.31607">
        <ele>93</ele>
        <time>2021-12-01T09:39:53Z</time>
      </trkpt>
      <trkpt lat="43.12105" lon="6.31612">
        <ele>91</ele>
        <time>2021-12-01T09:39:55Z</time>
      </trkpt>
      <trkpt lat="43.12095" lon="6.31615">
        <ele>90</ele>
        <time>2021-12-01T09:39:56Z</time>
      </trkpt>
      <trkpt lat="43.12084" lon="6.31618">
        <ele>88</ele>
        <time>2021-12-01T09:39:58Z</time>
      </trkpt>
      <trkpt lat="43.12076" lon="6.31616">
        <ele>87</ele>
        <time>2021-12-01T09:40:00Z</time>
      </trkpt>
      <trkpt lat="43.12062" lon="6.3162">
        <ele>84</ele>
        <time>2021-12-01T09:40:02Z</time>
      </trkpt>
      <trkpt lat="43.12056" lon="6.3162">
        <ele>83</ele>
        <time>2021-12-01T09:40:04Z</time>
      </trkpt>
      <trkpt lat="43.12047" lon="6.31613">
        <ele>82</ele>
        <time>2021-12-01T09:40:05Z</time>
      </trkpt>
      <trkpt lat="43.12039" lon="6.31614">
        <ele>80</ele>
        <time>2021-12-01T09:40:07Z</time>
      </trkpt>
      <trkpt lat="43.12019" lon="6.31625">
        <ele>77</ele>
        <time>2021-12-01T09:40:11Z</time>
      </trkpt>
      <trkpt lat="43.12004" lon="6.31632">
        <ele>74</ele>
        <time>2021-12-01T09:40:13Z</time>
      </trkpt>
      <trkpt lat="43.1198" lon="6.31647">
        <ele>70</ele>
        <time>2021-12-01T09:40:18Z</time>
      </trkpt>
      <trkpt lat="43.11969" lon="6.3165">
        <ele>68</ele>
        <time>2021-12-01T09:40:20Z</time>
      </trkpt>
      <trkpt lat="43.11957" lon="6.3165">
        <ele>66</ele>
        <time>2021-12-01T09:40:22Z</time>
      </trkpt>
      <trkpt lat="43.11949" lon="6.3165">
        <ele>64</ele>
        <time>2021-12-01T09:40:24Z</time>
      </trkpt>
      <trkpt lat="43.11941" lon="6.31651">
        <ele>63</ele>
        <time>2021-12-01T09:40:25Z</time>
      </trkpt>
      <trkpt lat="43.11926" lon="6.31645">
        <ele>60</ele>
        <time>2021-12-01T09:40:28Z</time>
      </trkpt>
      <trkpt lat="43.11921" lon="6.31639">
        <ele>59</ele>
        <time>2021-12-01T09:40:29Z</time>
      </trkpt>
      <trkpt lat="43.11913" lon="6.31624">
        <ele>57</ele>
        <time>2021-12-01T09:40:31Z</time>
      </trkpt>
      <trkpt lat="43.11891" lon="6.31604">
        <ele>51</ele>
        <time>2021-12-01T09:40:36Z</time>
      </trkpt>
      <trkpt lat="43.11886" lon="6.31594">
        <ele>50</ele>
        <time>2021-12-01T09:40:38Z</time>
      </trkpt>
      <trkpt lat="43.11885" lon="6.31576">
        <ele>49</ele>
        <time>2021-12-01T09:40:40Z</time>
      </trkpt>
      <trkpt lat="43.11888" lon="6.31559">
        <ele>47</ele>
        <time>2021-12-01T09:40:42Z</time>
      </trkpt>
      <trkpt lat="43.11892" lon="6.31551">
        <ele>47</ele>
        <time>2021-12-01T09:40:44Z</time>
      </trkpt>
      <trkpt lat="43.11906" lon="6.31534">
        <ele>47</ele>
        <time>2021-12-01T09:40:47Z</time>
      </trkpt>
      <trkpt lat="43.11921" lon="6.31524">
        <ele>47</ele>
        <time>2021-12-01T09:40:50Z</time>
      </trkpt>
      <trkpt lat="43.11944" lon="6.31518">
        <ele>51</ele>
        <time>2021-12-01T09:40:54Z</time>
      </trkpt>
      <trkpt lat="43.11948" lon="6.31513">
        <ele>51</ele>
        <time>2021-12-01T09:40:55Z</time>
      </trkpt>
      <trkpt lat="43.11948" lon="6.31501">
        <ele>49</ele>
        <time>2021-12-01T09:40:57Z</time>
      </trkpt>
      <trkpt lat="43.11944" lon="6.31474">
        <ele>46</ele>
        <time>2021-12-01T09:41:00Z</time>
      </trkpt>
      <trkpt lat="43.11945" lon="6.31466">
        <ele>45</ele>
        <time>2021-12-01T09:41:01Z</time>
      </trkpt>
      <trkpt lat="43.11949" lon="6.31457">
        <ele>45</ele>
        <time>2021-12-01T09:41:03Z</time>
      </trkpt>
      <trkpt lat="43.11958" lon="6.31449">
        <ele>46</ele>
        <time>2021-12-01T09:41:05Z</time>
      </trkpt>
      <trkpt lat="43.11967" lon="6.31447">
        <ele>46</ele>
        <time>2021-12-01T09:41:06Z</time>
      </trkpt>
      <trkpt lat="43.11976" lon="6.31449">
        <ele>48</ele>
        <time>2021-12-01T09:41:08Z</time>
      </trkpt>
      <trkpt lat="43.11979" lon="6.31446">
        <ele>48</ele>
        <time>2021-12-01T09:41:08Z</time>
      </trkpt>
      <trkpt lat="43.11976" lon="6.31427">
        <ele>45</ele>
        <time>2021-12-01T09:41:11Z</time>
      </trkpt>
      <trkpt lat="43.11991" lon="6.31399">
        <ele>47</ele>
        <time>2021-12-01T09:41:15Z</time>
      </trkpt>
      <trkpt lat="43.11991" lon="6.31388">
        <ele>48</ele>
        <time>2021-12-01T09:41:17Z</time>
      </trkpt>
      <trkpt lat="43.11983" lon="6.31391">
        <ele>48</ele>
        <time>2021-12-01T09:41:18Z</time>
      </trkpt>
      <trkpt lat="43.11961" lon="6.31411">
        <ele>44</ele>
        <time>2021-12-01T09:41:23Z</time>
      </trkpt>
      <trkpt lat="43.11953" lon="6.31414">
        <ele>43</ele>
        <time>2021-12-01T09:41:25Z</time>
      </trkpt>
      <trkpt lat="43.11939" lon="6.31413">
        <ele>42</ele>
        <time>2021-12-01T09:41:27Z</time>
      </trkpt>
      <trkpt lat="43.11933" lon="6.31414">
        <ele>41</ele>
        <time>2021-12-01T09:41:28Z</time>
      </trkpt>
      <trkpt lat="43.11912" lon="6.31428">
        <ele>41</ele>
        <time>2021-12-01T09:41:32Z</time>
      </trkpt>
      <trkpt lat="43.11849" lon="6.31451">
        <ele>42</ele>
        <time>2021-12-01T09:41:44Z</time>
      </trkpt>
      <trkpt lat="43.11837" lon="6.31459">
        <ele>41</ele>
        <time>2021-12-01T09:41:46Z</time>
      </trkpt>
      <trkpt lat="43.11825" lon="6.31473">
        <ele>39</ele>
        <time>2021-12-01T09:41:49Z</time>
      </trkpt>
      <trkpt lat="43.11811" lon="6.31514">
        <ele>35</ele>
        <time>2021-12-01T09:41:55Z</time>
      </trkpt>
      <trkpt lat="43.11805" lon="6.31521">
        <ele>34</ele>
        <time>2021-12-01T09:41:56Z</time>
      </trkpt>
      <trkpt lat="43.11787" lon="6.31532">
        <ele>33</ele>
        <time>2021-12-01T09:42:00Z</time>
      </trkpt>
      <trkpt lat="43.11763" lon="6.31543">
        <ele>31</ele>
        <time>2021-12-01T09:42:04Z</time>
      </trkpt>
      <trkpt lat="43.11756" lon="6.31546">
        <ele>30</ele>
        <time>2021-12-01T09:42:06Z</time>
      </trkpt>
      <trkpt lat="43.11746" lon="6.31552">
        <ele>29</ele>
        <time>2021-12-01T09:42:08Z</time>
      </trkpt>
      <trkpt lat="43.11736" lon="6.31552">
        <ele>29</ele>
        <time>2021-12-01T09:42:09Z</time>
      </trkpt>
      <trkpt lat="43.11714" lon="6.31541">
        <ele>29</ele>
        <time>2021-12-01T09:42:14Z</time>
      </trkpt>
      <trkpt lat="43.11699" lon="6.31526">
        <ele>28</ele>
        <time>2021-12-01T09:42:17Z</time>
      </trkpt>
      <trkpt lat="43.11687" lon="6.31509">
        <ele>27</ele>
        <time>2021-12-01T09:42:20Z</time>
      </trkpt>
      <trkpt lat="43.11663" lon="6.31484">
        <ele>26</ele>
        <time>2021-12-01T09:42:25Z</time>
      </trkpt>
      <trkpt lat="43.11646" lon="6.31458">
        <ele>27</ele>
        <time>2021-12-01T09:42:30Z</time>
      </trkpt>
      <trkpt lat="43.11628" lon="6.31444">
        <ele>26</ele>
        <time>2021-12-01T09:42:33Z</time>
      </trkpt>
      <trkpt lat="43.11615" lon="6.3142">
        <ele>24</ele>
        <time>2021-12-01T09:42:37Z</time>
      </trkpt>
      <trkpt lat="43.11606" lon="6.31412">
        <ele>23</ele>
        <time>2021-12-01T09:42:39Z</time>
      </trkpt>
      <trkpt lat="43.11606" lon="6.31417">
        <ele>23</ele>
        <time>2021-12-01T09:42:40Z</time>
      </trkpt>
      <trkpt lat="43.116" lon="6.31436">
        <ele>22</ele>
        <time>2021-12-01T09:42:43Z</time>
      </trkpt>
      <trkpt lat="43.11598" lon="6.31451">
        <ele>23</ele>
        <time>2021-12-01T09:42:45Z</time>
      </trkpt>
      <trkpt lat="43.11601" lon="6.3146">
        <ele>23</ele>
        <time>2021-12-01T09:42:46Z</time>
      </trkpt>
      <trkpt lat="43.11605" lon="6.31495">
        <ele>25</ele>
        <time>2021-12-01T09:42:50Z</time>
      </trkpt>
      <trkpt lat="43.11621" lon="6.31537">
        <ele>28</ele>
        <time>2021-12-01T09:42:57Z</time>
      </trkpt>
      <trkpt lat="43.11647" lon="6.31567">
        <ele>29</ele>
        <time>2021-12-01T09:43:03Z</time>
      </trkpt>
      <trkpt lat="43.11686" lon="6.31575">
        <ele>28</ele>
        <time>2021-12-01T09:43:10Z</time>
      </trkpt>
      <trkpt lat="43.11705" lon="6.31595">
        <ele>29</ele>
        <time>2021-12-01T09:43:14Z</time>
      </trkpt>
      <trkpt lat="43.1175" lon="6.31676">
        <ele>37</ele>
        <time>2021-12-01T09:43:27Z</time>
      </trkpt>
      <trkpt lat="43.11782" lon="6.31688">
        <ele>39</ele>
        <time>2021-12-01T09:43:33Z</time>
      </trkpt>
      <trkpt lat="43.11798" lon="6.31701">
        <ele>40</ele>
        <time>2021-12-01T09:43:36Z</time>
      </trkpt>
      <trkpt lat="43.11828" lon="6.31755">
        <ele>42</ele>
        <time>2021-12-01T09:43:45Z</time>
      </trkpt>
      <trkpt lat="43.11857" lon="6.31855">
        <ele>49</ele>
        <time>2021-12-01T09:43:59Z</time>
      </trkpt>
      <trkpt lat="43.11859" lon="6.31869">
        <ele>50</ele>
        <time>2021-12-01T09:44:01Z</time>
      </trkpt>
      <trkpt lat="43.11865" lon="6.31885">
        <ele>51</ele>
        <time>2021-12-01T09:44:03Z</time>
      </trkpt>
      <trkpt lat="43.11933" lon="6.319">
        <ele>46</ele>
        <time>2021-12-01T09:44:16Z</time>
      </trkpt>
      <trkpt lat="43.1195" lon="6.31919">
        <ele>46</ele>
        <time>2021-12-01T09:44:20Z</time>
      </trkpt>
      <trkpt lat="43.11961" lon="6.3194">
        <ele>46</ele>
        <time>2021-12-01T09:44:23Z</time>
      </trkpt>
      <trkpt lat="43.11966" lon="6.3197">
        <ele>47</ele>
        <time>2021-12-01T09:44:27Z</time>
      </trkpt>
      <trkpt lat="43.11966" lon="6.31992">
        <ele>48</ele>
        <time>2021-12-01T09:44:30Z</time>
      </trkpt>
      <trkpt lat="43.11969" lon="6.3201">
        <ele>49</ele>
        <time>2021-12-01T09:44:32Z</time>
      </trkpt>
      <trkpt lat="43.1196" lon="6.32026">
        <ele>51</ele>
        <time>2021-12-01T09:44:35Z</time>
      </trkpt>
      <trkpt lat="43.11959" lon="6.3205">
        <ele>52</ele>
        <time>2021-12-01T09:44:38Z</time>
      </trkpt>
      <trkpt lat="43.11982" lon="6.32128">
        <ele>59</ele>
        <time>2021-12-01T09:44:49Z</time>
      </trkpt>
      <trkpt lat="43.11986" lon="6.32148">
        <ele>62</ele>
        <time>2021-12-01T09:44:52Z</time>
      </trkpt>
      <trkpt lat="43.11987" lon="6.32186">
        <ele>65</ele>
        <time>2021-12-01T09:44:56Z</time>
      </trkpt>
      <trkpt lat="43.11981" lon="6.3222">
        <ele>65</ele>
        <time>2021-12-01T09:45:01Z</time>
      </trkpt>
      <trkpt lat="43.1198" lon="6.32235">
        <ele>65</ele>
        <time>2021-12-01T09:45:03Z</time>
      </trkpt>
      <trkpt lat="43.11999" lon="6.32289">
        <ele>64</ele>
        <time>2021-12-01T09:45:11Z</time>
      </trkpt>
      <trkpt lat="43.12015" lon="6.32308">
        <ele>65</ele>
        <time>2021-12-01T09:45:15Z</time>
      </trkpt>
      <trkpt lat="43.12019" lon="6.32316">
        <ele>66</ele>
        <time>2021-12-01T09:45:16Z</time>
      </trkpt>
      <trkpt lat="43.12023" lon="6.32343">
        <ele>64</ele>
        <time>2021-12-01T09:45:19Z</time>
      </trkpt>
      <trkpt lat="43.12028" lon="6.32365">
        <ele>64</ele>
        <time>2021-12-01T09:45:22Z</time>
      </trkpt>
      <trkpt lat="43.12039" lon="6.32395">
        <ele>64</ele>
        <time>2021-12-01T09:45:27Z</time>
      </trkpt>
      <trkpt lat="43.12049" lon="6.32414">
        <ele>64</ele>
        <time>2021-12-01T09:45:30Z</time>
      </trkpt>
      <trkpt lat="43.12051" lon="6.32427">
        <ele>64</ele>
        <time>2021-12-01T09:45:31Z</time>
      </trkpt>
      <trkpt lat="43.12051" lon="6.32445">
        <ele>65</ele>
        <time>2021-12-01T09:45:34Z</time>
      </trkpt>
      <trkpt lat="43.12058" lon="6.32471">
        <ele>65</ele>
        <time>2021-12-01T09:45:37Z</time>
      </trkpt>
      <trkpt lat="43.12068" lon="6.32496">
        <ele>65</ele>
        <time>2021-12-01T09:45:41Z</time>
      </trkpt>
      <trkpt lat="43.12072" lon="6.32515">
        <ele>66</ele>
        <time>2021-12-01T09:45:44Z</time>
      </trkpt>
      <trkpt lat="43.12056" lon="6.32543">
        <ele>71</ele>
        <time>2021-12-01T09:45:48Z</time>
      </trkpt>
      <trkpt lat="43.12049" lon="6.32544">
        <ele>71</ele>
        <time>2021-12-01T09:45:50Z</time>
      </trkpt>
      <trkpt lat="43.12012" lon="6.32511">
        <ele>70</ele>
        <time>2021-12-01T09:45:57Z</time>
      </trkpt>
      <trkpt lat="43.11962" lon="6.32494">
        <ele>73</ele>
        <time>2021-12-01T09:46:07Z</time>
      </trkpt>
      <trkpt lat="43.11925" lon="6.32485">
        <ele>76</ele>
        <time>2021-12-01T09:46:13Z</time>
      </trkpt>
      <trkpt lat="43.1188" lon="6.32494">
        <ele>80</ele>
        <time>2021-12-01T09:46:21Z</time>
      </trkpt>
      <trkpt lat="43.11844" lon="6.32499">
        <ele>83</ele>
        <time>2021-12-01T09:46:28Z</time>
      </trkpt>
      <trkpt lat="43.11822" lon="6.32513">
        <ele>87</ele>
        <time>2021-12-01T09:46:32Z</time>
      </trkpt>
      <trkpt lat="43.11805" lon="6.32517">
        <ele>88</ele>
        <time>2021-12-01T09:46:35Z</time>
      </trkpt>
      <trkpt lat="43.1177" lon="6.32513">
        <ele>87</ele>
        <time>2021-12-01T09:46:41Z</time>
      </trkpt>
      <trkpt lat="43.1174" lon="6.32485">
        <ele>81</ele>
        <time>2021-12-01T09:46:48Z</time>
      </trkpt>
      <trkpt lat="43.11732" lon="6.32482">
        <ele>81</ele>
        <time>2021-12-01T09:46:49Z</time>
      </trkpt>
      <trkpt lat="43.11691" lon="6.32513">
        <ele>91</ele>
        <time>2021-12-01T09:46:58Z</time>
      </trkpt>
      <trkpt lat="43.11681" lon="6.32508">
        <ele>91</ele>
        <time>2021-12-01T09:47:00Z</time>
      </trkpt>
      <trkpt lat="43.11673" lon="6.3248">
        <ele>85</ele>
        <time>2021-12-01T09:47:03Z</time>
      </trkpt>
      <trkpt lat="43.11661" lon="6.32463">
        <ele>82</ele>
        <time>2021-12-01T09:47:07Z</time>
      </trkpt>
      <trkpt lat="43.11636" lon="6.3245">
        <ele>82</ele>
        <time>2021-12-01T09:47:11Z</time>
      </trkpt>
      <trkpt lat="43.11612" lon="6.32449">
        <ele>84</ele>
        <time>2021-12-01T09:47:16Z</time>
      </trkpt>
      <trkpt lat="43.11531" lon="6.32476">
        <ele>101</ele>
        <time>2021-12-01T09:47:30Z</time>
      </trkpt>
      <trkpt lat="43.1152" lon="6.32473">
        <ele>102</ele>
        <time>2021-12-01T09:47:32Z</time>
      </trkpt>
      <trkpt lat="43.11511" lon="6.32462">
        <ele>101</ele>
        <time>2021-12-01T09:47:35Z</time>
      </trkpt>
      <trkpt lat="43.11506" lon="6.32452">
        <ele>101</ele>
        <time>2021-12-01T09:47:36Z</time>
      </trkpt>
      <trkpt lat="43.11495" lon="6.32445">
        <ele>100</ele>
        <time>2021-12-01T09:47:38Z</time>
      </trkpt>
      <trkpt lat="43.11479" lon="6.32462">
        <ele>100</ele>
        <time>2021-12-01T09:47:42Z</time>
      </trkpt>
      <trkpt lat="43.11481" lon="6.32484">
        <ele>102</ele>
        <time>2021-12-01T09:47:45Z</time>
      </trkpt>
      <trkpt lat="43.1148" lon="6.32503">
        <ele>103</ele>
        <time>2021-12-01T09:47:47Z</time>
      </trkpt>
      <trkpt lat="43.11441" lon="6.32636">
        <ele>101</ele>
        <time>2021-12-01T09:48:06Z</time>
      </trkpt>
      <trkpt lat="43.11442" lon="6.32676">
        <ele>103</ele>
        <time>2021-12-01T09:48:11Z</time>
      </trkpt>
      <trkpt lat="43.11461" lon="6.32713">
        <ele>109</ele>
        <time>2021-12-01T09:48:17Z</time>
      </trkpt>
      <trkpt lat="43.11478" lon="6.32728">
        <ele>115</ele>
        <time>2021-12-01T09:48:21Z</time>
      </trkpt>
      <trkpt lat="43.11497" lon="6.32761">
        <ele>120</ele>
        <time>2021-12-01T09:48:26Z</time>
      </trkpt>
      <trkpt lat="43.11501" lon="6.32771">
        <ele>122</ele>
        <time>2021-12-01T09:48:27Z</time>
      </trkpt>
      <trkpt lat="43.11498" lon="6.32813">
        <ele>123</ele>
        <time>2021-12-01T09:48:33Z</time>
      </trkpt>
      <trkpt lat="43.11507" lon="6.32904">
        <ele>134</ele>
        <time>2021-12-01T09:48:45Z</time>
      </trkpt>
      <trkpt lat="43.11514" lon="6.33028">
        <ele>157</ele>
        <time>2021-12-01T09:49:01Z</time>
      </trkpt>
      <trkpt lat="43.11522" lon="6.33068">
        <ele>162</ele>
        <time>2021-12-01T09:49:06Z</time>
      </trkpt>
      <trkpt lat="43.11523" lon="6.3309">
        <ele>163</ele>
        <time>2021-12-01T09:49:09Z</time>
      </trkpt>
      <trkpt lat="43.1152" lon="6.33106">
        <ele>162</ele>
        <time>2021-12-01T09:49:11Z</time>
      </trkpt>
      <trkpt lat="43.11512" lon="6.33115">
        <ele>162</ele>
        <time>2021-12-01T09:49:13Z</time>
      </trkpt>
      <trkpt lat="43.1149" lon="6.33124">
        <ele>162</ele>
        <time>2021-12-01T09:49:17Z</time>
      </trkpt>
      <trkpt lat="43.11453" lon="6.33128">
        <ele>160</ele>
        <time>2021-12-01T09:49:24Z</time>
      </trkpt>
      <trkpt lat="43.11423" lon="6.33138">
        <ele>160</ele>
        <time>2021-12-01T09:49:29Z</time>
      </trkpt>
      <trkpt lat="43.11387" lon="6.33153">
        <ele>162</ele>
        <time>2021-12-01T09:49:36Z</time>
      </trkpt>
      <trkpt lat="43.11357" lon="6.33171">
        <ele>164</ele>
        <time>2021-12-01T09:49:42Z</time>
      </trkpt>
      <trkpt lat="43.113" lon="6.33207">
        <ele>166</ele>
        <time>2021-12-01T09:49:53Z</time>
      </trkpt>
      <trkpt lat="43.1128" lon="6.33229">
        <ele>168</ele>
        <time>2021-12-01T09:49:58Z</time>
      </trkpt>
      <trkpt lat="43.11266" lon="6.33254">
        <ele>170</ele>
        <time>2021-12-01T09:50:02Z</time>
      </trkpt>
      <trkpt lat="43.1126" lon="6.33277">
        <ele>170</ele>
        <time>2021-12-01T09:50:05Z</time>
      </trkpt>
      <trkpt lat="43.11257" lon="6.33309">
        <ele>170</ele>
        <time>2021-12-01T09:50:09Z</time>
      </trkpt>
      <trkpt lat="43.11257" lon="6.33341">
        <ele>170</ele>
        <time>2021-12-01T09:50:13Z</time>
      </trkpt>
      <trkpt lat="43.11259" lon="6.33372">
        <ele>168</ele>
        <time>2021-12-01T09:50:17Z</time>
      </trkpt>
      <trkpt lat="43.11257" lon="6.33389">
        <ele>168</ele>
        <time>2021-12-01T09:50:20Z</time>
      </trkpt>
      <trkpt lat="43.11252" lon="6.33403">
        <ele>168</ele>
        <time>2021-12-01T09:50:22Z</time>
      </trkpt>
      <trkpt lat="43.11227" lon="6.33437">
        <ele>162</ele>
        <time>2021-12-01T09:50:28Z</time>
      </trkpt>
      <trkpt lat="43.11191" lon="6.33474">
        <ele>158</ele>
        <time>2021-12-01T09:50:36Z</time>
      </trkpt>
      <trkpt lat="43.11168" lon="6.33502">
        <ele>160</ele>
        <time>2021-12-01T09:50:41Z</time>
      </trkpt>
      <trkpt lat="43.11133" lon="6.33534">
        <ele>156</ele>
        <time>2021-12-01T09:50:49Z</time>
      </trkpt>
      <trkpt lat="43.11112" lon="6.33559">
        <ele>155</ele>
        <time>2021-12-01T09:50:54Z</time>
      </trkpt>
      <trkpt lat="43.11104" lon="6.33573">
        <ele>156</ele>
        <time>2021-12-01T09:50:56Z</time>
      </trkpt>
      <trkpt lat="43.11091" lon="6.33612">
        <ele>157</ele>
        <time>2021-12-01T09:51:02Z</time>
      </trkpt>
      <trkpt lat="43.11055" lon="6.33697">
        <ele>160</ele>
        <time>2021-12-01T09:51:14Z</time>
      </trkpt>
      <trkpt lat="43.11038" lon="6.33732">
        <ele>162</ele>
        <time>2021-12-01T09:51:20Z</time>
      </trkpt>
      <trkpt lat="43.11027" lon="6.33769">
        <ele>165</ele>
        <time>2021-12-01T09:51:25Z</time>
      </trkpt>
      <trkpt lat="43.11016" lon="6.33788">
        <ele>166</ele>
        <time>2021-12-01T09:51:28Z</time>
      </trkpt>
      <trkpt lat="43.10966" lon="6.3384">
        <ele>166</ele>
        <time>2021-12-01T09:51:39Z</time>
      </trkpt>
      <trkpt lat="43.10938" lon="6.33875">
        <ele>163</ele>
        <time>2021-12-01T09:51:46Z</time>
      </trkpt>
      <trkpt lat="43.1092" lon="6.33884">
        <ele>161</ele>
        <time>2021-12-01T09:51:50Z</time>
      </trkpt>
      <trkpt lat="43.10928" lon="6.33915">
        <ele>164</ele>
        <time>2021-12-01T09:51:54Z</time>
      </trkpt>
      <trkpt lat="43.10932" lon="6.33955">
        <ele>164</ele>
        <time>2021-12-01T09:51:59Z</time>
      </trkpt>
      <trkpt lat="43.10927" lon="6.34022">
        <ele>160</ele>
        <time>2021-12-01T09:52:08Z</time>
      </trkpt>
      <trkpt lat="43.10928" lon="6.34032">
        <ele>160</ele>
        <time>2021-12-01T09:52:09Z</time>
      </trkpt>
      <trkpt lat="43.10938" lon="6.34066">
        <ele>161</ele>
        <time>2021-12-01T09:52:14Z</time>
      </trkpt>
      <trkpt lat="43.10941" lon="6.34087">
        <ele>161</ele>
        <time>2021-12-01T09:52:17Z</time>
      </trkpt>
      <trkpt lat="43.10937" lon="6.34138">
        <ele>159</ele>
        <time>2021-12-01T09:52:23Z</time>
      </trkpt>
      <trkpt lat="43.10935" lon="6.34192">
        <ele>158</ele>
        <time>2021-12-01T09:52:30Z</time>
      </trkpt>
      <trkpt lat="43.10922" lon="6.34214">
        <ele>158</ele>
        <time>2021-12-01T09:52:34Z</time>
      </trkpt>
      <trkpt lat="43.10906" lon="6.34254">
        <ele>158</ele>
        <time>2021-12-01T09:52:40Z</time>
      </trkpt>
      <trkpt lat="43.10919" lon="6.34297">
        <ele>154</ele>
        <time>2021-12-01T09:52:46Z</time>
      </trkpt>
      <trkpt lat="43.10946" lon="6.34342">
        <ele>142</ele>
        <time>2021-12-01T09:52:54Z</time>
      </trkpt>
      <trkpt lat="43.1098" lon="6.3438">
        <ele>131</ele>
        <time>2021-12-01T09:53:01Z</time>
      </trkpt>
      <trkpt lat="43.11033" lon="6.34454">
        <ele>118</ele>
        <time>2021-12-01T09:53:15Z</time>
      </trkpt>
      <trkpt lat="43.11053" lon="6.34475">
        <ele>115</ele>
        <time>2021-12-01T09:53:19Z</time>
      </trkpt>
      <trkpt lat="43.1107" lon="6.34499">
        <ele>112</ele>
        <time>2021-12-01T09:53:24Z</time>
      </trkpt>
      <trkpt lat="43.11079" lon="6.3452">
        <ele>110</ele>
        <time>2021-12-01T09:53:27Z</time>
      </trkpt>
      <trkpt lat="43.11087" lon="6.34556">
        <ele>106</ele>
        <time>2021-12-01T09:53:32Z</time>
      </trkpt>
      <trkpt lat="43.1109" lon="6.3459">
        <ele>103</ele>
        <time>2021-12-01T09:53:36Z</time>
      </trkpt>
      <trkpt lat="43.11091" lon="6.3464">
        <ele>100</ele>
        <time>2021-12-01T09:53:43Z</time>
      </trkpt>
      <trkpt lat="43.11094" lon="6.3466">
        <ele>98</ele>
        <time>2021-12-01T09:53:45Z</time>
      </trkpt>
      <trkpt lat="43.11108" lon="6.34705">
        <ele>92</ele>
        <time>2021-12-01T09:53:52Z</time>
      </trkpt>
      <trkpt lat="43.11112" lon="6.3471">
        <ele>91</ele>
        <time>2021-12-01T09:53:53Z</time>
      </trkpt>
      <trkpt lat="43.11121" lon="6.34712">
        <ele>90</ele>
        <time>2021-12-01T09:53:54Z</time>
      </trkpt>
      <trkpt lat="43.11125" lon="6.34719">
        <ele>89</ele>
        <time>2021-12-01T09:53:55Z</time>
      </trkpt>
      <trkpt lat="43.11126" lon="6.34732">
        <ele>89</ele>
        <time>2021-12-01T09:53:57Z</time>
      </trkpt>
      <trkpt lat="43.11164" lon="6.34824">
        <ele>84</ele>
        <time>2021-12-01T09:54:11Z</time>
      </trkpt>
      <trkpt lat="43.11171" lon="6.3483">
        <ele>83</ele>
        <time>2021-12-01T09:54:12Z</time>
      </trkpt>
      <trkpt lat="43.11201" lon="6.34851">
        <ele>79</ele>
        <time>2021-12-01T09:54:18Z</time>
      </trkpt>
      <trkpt lat="43.11251" lon="6.34868">
        <ele>76</ele>
        <time>2021-12-01T09:54:28Z</time>
      </trkpt>
      <trkpt lat="43.11264" lon="6.34879">
        <ele>75</ele>
        <time>2021-12-01T09:54:30Z</time>
      </trkpt>
      <trkpt lat="43.11284" lon="6.34889">
        <ele>74</ele>
        <time>2021-12-01T09:54:34Z</time>
      </trkpt>
      <trkpt lat="43.11323" lon="6.34889">
        <ele>68</ele>
        <time>2021-12-01T09:54:41Z</time>
      </trkpt>
      <trkpt lat="43.11346" lon="6.34885">
        <ele>64</ele>
        <time>2021-12-01T09:54:45Z</time>
      </trkpt>
      <trkpt lat="43.11371" lon="6.34886">
        <ele>60</ele>
        <time>2021-12-01T09:54:50Z</time>
      </trkpt>
      <trkpt lat="43.11382" lon="6.34889">
        <ele>59</ele>
        <time>2021-12-01T09:54:52Z</time>
      </trkpt>
      <trkpt lat="43.1139" lon="6.34895">
        <ele>58</ele>
        <time>2021-12-01T09:54:53Z</time>
      </trkpt>
      <trkpt lat="43.11412" lon="6.34922">
        <ele>56</ele>
        <time>2021-12-01T09:54:58Z</time>
      </trkpt>
      <trkpt lat="43.11421" lon="6.34943">
        <ele>53</ele>
        <time>2021-12-01T09:55:02Z</time>
      </trkpt>
      <trkpt lat="43.11423" lon="6.34958">
        <ele>52</ele>
        <time>2021-12-01T09:55:04Z</time>
      </trkpt>
      <trkpt lat="43.1147" lon="6.34978">
        <ele>46</ele>
        <time>2021-12-01T09:55:12Z</time>
      </trkpt>
      <trkpt lat="43.11495" lon="6.34976">
        <ele>43</ele>
        <time>2021-12-01T09:55:17Z</time>
      </trkpt>
      <trkpt lat="43.11516" lon="6.34967">
        <ele>41</ele>
        <time>2021-12-01T09:55:21Z</time>
      </trkpt>
      <trkpt lat="43.11537" lon="6.34953">
        <ele>40</ele>
        <time>2021-12-01T09:55:25Z</time>
      </trkpt>
      <trkpt lat="43.11666" lon="6.34864">
        <ele>32</ele>
        <time>2021-12-01T09:55:51Z</time>
      </trkpt>
      <trkpt lat="43.11663" lon="6.34858">
        <ele>31</ele>
        <time>2021-12-01T09:55:51Z</time>
      </trkpt>
      <trkpt lat="43.11659" lon="6.34854">
        <ele>31</ele>
        <time>2021-12-01T09:55:52Z</time>
      </trkpt>
      <trkpt lat="43.11638" lon="6.34854">
        <ele>31</ele>
        <time>2021-12-01T09:55:56Z</time>
      </trkpt>
      <trkpt lat="43.11579" lon="6.34839">
        <ele>32</ele>
        <time>2021-12-01T09:56:07Z</time>
      </trkpt>
      <trkpt lat="43.11555" lon="6.3481">
        <ele>33</ele>
        <time>2021-12-01T09:56:12Z</time>
      </trkpt>
      <trkpt lat="43.1154" lon="6.34805">
        <ele>34</ele>
        <time>2021-12-01T09:56:15Z</time>
      </trkpt>
      <trkpt lat="43.11522" lon="6.34813">
        <ele>36</ele>
        <time>2021-12-01T09:56:19Z</time>
      </trkpt>
      <trkpt lat="43.11509" lon="6.3481">
        <ele>37</ele>
        <time>2021-12-01T09:56:21Z</time>
      </trkpt>
      <trkpt lat="43.11492" lon="6.34796">
        <ele>38</ele>
        <time>2021-12-01T09:56:24Z</time>
      </trkpt>
      <trkpt lat="43.11457" lon="6.34785">
        <ele>41</ele>
        <time>2021-12-01T09:56:31Z</time>
      </trkpt>
      <trkpt lat="43.11419" lon="6.34763">
        <ele>42</ele>
        <time>2021-12-01T09:56:38Z</time>
      </trkpt>
      <trkpt lat="43.11387" lon="6.34754">
        <ele>43</ele>
        <time>2021-12-01T09:56:44Z</time>
      </trkpt>
      <trkpt lat="43.11366" lon="6.34751">
        <ele>44</ele>
        <time>2021-12-01T09:56:48Z</time>
      </trkpt>
      <trkpt lat="43.11349" lon="6.34756">
        <ele>45</ele>
        <time>2021-12-01T09:56:51Z</time>
      </trkpt>
      <trkpt lat="43.11328" lon="6.34742">
        <ele>47</ele>
        <time>2021-12-01T09:56:55Z</time>
      </trkpt>
      <trkpt lat="43.11317" lon="6.34728">
        <ele>49</ele>
        <time>2021-12-01T09:56:58Z</time>
      </trkpt>
      <trkpt lat="43.11304" lon="6.34718">
        <ele>51</ele>
        <time>2021-12-01T09:57:00Z</time>
      </trkpt>
      <trkpt lat="43.11292" lon="6.34702">
        <ele>53</ele>
        <time>2021-12-01T09:57:03Z</time>
      </trkpt>
      <trkpt lat="43.11289" lon="6.34691">
        <ele>53</ele>
        <time>2021-12-01T09:57:05Z</time>
      </trkpt>
      <trkpt lat="43.11291" lon="6.34674">
        <ele>53</ele>
        <time>2021-12-01T09:57:07Z</time>
      </trkpt>
      <trkpt lat="43.11289" lon="6.34661">
        <ele>54</ele>
        <time>2021-12-01T09:57:09Z</time>
      </trkpt>
      <trkpt lat="43.1128" lon="6.34651">
        <ele>56</ele>
        <time>2021-12-01T09:57:11Z</time>
      </trkpt>
      <trkpt lat="43.11262" lon="6.34599">
        <ele>62</ele>
        <time>2021-12-01T09:57:18Z</time>
      </trkpt>
      <trkpt lat="43.11254" lon="6.34556">
        <ele>68</ele>
        <time>2021-12-01T09:57:24Z</time>
      </trkpt>
      <trkpt lat="43.11236" lon="6.34495">
        <ele>79</ele>
        <time>2021-12-01T09:57:33Z</time>
      </trkpt>
      <trkpt lat="43.11229" lon="6.34477">
        <ele>83</ele>
        <time>2021-12-01T09:57:35Z</time>
      </trkpt>
      <trkpt lat="43.11211" lon="6.34463">
        <ele>87</ele>
        <time>2021-12-01T09:57:39Z</time>
      </trkpt>
      <trkpt lat="43.11209" lon="6.34457">
        <ele>88</ele>
        <time>2021-12-01T09:57:40Z</time>
      </trkpt>
      <trkpt lat="43.11213" lon="6.34453">
        <ele>88</ele>
        <time>2021-12-01T09:57:41Z</time>
      </trkpt>
      <trkpt lat="43.11228" lon="6.3446">
        <ele>85</ele>
        <time>2021-12-01T09:57:44Z</time>
      </trkpt>
      <trkpt lat="43.11243" lon="6.34462">
        <ele>84</ele>
        <time>2021-12-01T09:57:46Z</time>
      </trkpt>
      <trkpt lat="43.11257" lon="6.34474">
        <ele>81</ele>
        <time>2021-12-01T09:57:49Z</time>
      </trkpt>
      <trkpt lat="43.11268" lon="6.34485">
        <ele>81</ele>
        <time>2021-12-01T09:57:52Z</time>
      </trkpt>
      <trkpt lat="43.1128" lon="6.34505">
        <ele>80</ele>
        <time>2021-12-01T09:57:55Z</time>
      </trkpt>
      <trkpt lat="43.11285" lon="6.34506">
        <ele>81</ele>
        <time>2021-12-01T09:57:56Z</time>
      </trkpt>
      <trkpt lat="43.11286" lon="6.34501">
        <ele>82</ele>
        <time>2021-12-01T09:57:56Z</time>
      </trkpt>
      <trkpt lat="43.11277" lon="6.34468">
        <ele>85</ele>
        <time>2021-12-01T09:58:01Z</time>
      </trkpt>
      <trkpt lat="43.11263" lon="6.3444">
        <ele>87</ele>
        <time>2021-12-01T09:58:05Z</time>
      </trkpt>
      <trkpt lat="43.11254" lon="6.34429">
        <ele>89</ele>
        <time>2021-12-01T09:58:08Z</time>
      </trkpt>
      <trkpt lat="43.11233" lon="6.34418">
        <ele>91</ele>
        <time>2021-12-01T09:58:12Z</time>
      </trkpt>
      <trkpt lat="43.11232" lon="6.34412">
        <ele>92</ele>
        <time>2021-12-01T09:58:12Z</time>
      </trkpt>
      <trkpt lat="43.11236" lon="6.34406">
        <ele>93</ele>
        <time>2021-12-01T09:58:13Z</time>
      </trkpt>
      <trkpt lat="43.1127" lon="6.34391">
        <ele>92</ele>
        <time>2021-12-01T09:58:20Z</time>
      </trkpt>
      <trkpt lat="43.11276" lon="6.34383">
        <ele>92</ele>
        <time>2021-12-01T09:58:21Z</time>
      </trkpt>
      <trkpt lat="43.11279" lon="6.34375">
        <ele>92</ele>
        <time>2021-12-01T09:58:22Z</time>
      </trkpt>
      <trkpt lat="43.11285" lon="6.34369">
        <ele>91</ele>
        <time>2021-12-01T09:58:24Z</time>
      </trkpt>
      <trkpt lat="43.11296" lon="6.34366">
        <ele>89</ele>
        <time>2021-12-01T09:58:26Z</time>
      </trkpt>
      <trkpt lat="43.11311" lon="6.34372">
        <ele>88</ele>
        <time>2021-12-01T09:58:29Z</time>
      </trkpt>
      <trkpt lat="43.11344" lon="6.3439">
        <ele>87</ele>
        <time>2021-12-01T09:58:35Z</time>
      </trkpt>
      <trkpt lat="43.11356" lon="6.3439">
        <ele>86</ele>
        <time>2021-12-01T09:58:37Z</time>
      </trkpt>
      <trkpt lat="43.11369" lon="6.34383">
        <ele>83</ele>
        <time>2021-12-01T09:58:40Z</time>
      </trkpt>
      <trkpt lat="43.11387" lon="6.34378">
        <ele>81</ele>
        <time>2021-12-01T09:58:43Z</time>
      </trkpt>
      <trkpt lat="43.11409" lon="6.34377">
        <ele>79</ele>
        <time>2021-12-01T09:58:47Z</time>
      </trkpt>
      <trkpt lat="43.11411" lon="6.34372">
        <ele>77</ele>
        <time>2021-12-01T09:58:47Z</time>
      </trkpt>
      <trkpt lat="43.11408" lon="6.34366">
        <ele>77</ele>
        <time>2021-12-01T09:58:48Z</time>
      </trkpt>
      <trkpt lat="43.11383" lon="6.34358">
        <ele>78</ele>
        <time>2021-12-01T09:58:53Z</time>
      </trkpt>
      <trkpt lat="43.11363" lon="6.34357">
        <ele>80</ele>
        <time>2021-12-01T09:58:57Z</time>
      </trkpt>
      <trkpt lat="43.11357" lon="6.34351">
        <ele>80</ele>
        <time>2021-12-01T09:58:58Z</time>
      </trkpt>
      <trkpt lat="43.11352" lon="6.34328">
        <ele>77</ele>
        <time>2021-12-01T09:59:01Z</time>
      </trkpt>
      <trkpt lat="43.11355" lon="6.34319">
        <ele>76</ele>
        <time>2021-12-01T09:59:02Z</time>
      </trkpt>
      <trkpt lat="43.11367" lon="6.34309">
        <ele>74</ele>
        <time>2021-12-01T09:59:05Z</time>
      </trkpt>
      <trkpt lat="43.11385" lon="6.34289">
        <ele>70</ele>
        <time>2021-12-01T09:59:09Z</time>
      </trkpt>
      <trkpt lat="43.11415" lon="6.3428">
        <ele>65</ele>
        <time>2021-12-01T09:59:14Z</time>
      </trkpt>
      <trkpt lat="43.11428" lon="6.3427">
        <ele>63</ele>
        <time>2021-12-01T09:59:17Z</time>
      </trkpt>
      <trkpt lat="43.11441" lon="6.34253">
        <ele>60</ele>
        <time>2021-12-01T09:59:20Z</time>
      </trkpt>
      <trkpt lat="43.1145" lon="6.34231">
        <ele>59</ele>
        <time>2021-12-01T09:59:23Z</time>
      </trkpt>
      <trkpt lat="43.11461" lon="6.34219">
        <ele>58</ele>
        <time>2021-12-01T09:59:26Z</time>
      </trkpt>
      <trkpt lat="43.11496" lon="6.342">
        <ele>54</ele>
        <time>2021-12-01T09:59:33Z</time>
      </trkpt>
      <trkpt lat="43.11513" lon="6.34184">
        <ele>53</ele>
        <time>2021-12-01T09:59:36Z</time>
      </trkpt>
      <trkpt lat="43.11557" lon="6.34157">
        <ele>51</ele>
        <time>2021-12-01T09:59:45Z</time>
      </trkpt>
      <trkpt lat="43.11588" lon="6.34147">
        <ele>50</ele>
        <time>2021-12-01T09:59:51Z</time>
      </trkpt>
      <trkpt lat="43.1161" lon="6.34125">
        <ele>51</ele>
        <time>2021-12-01T09:59:55Z</time>
      </trkpt>
      <trkpt lat="43.11637" lon="6.34114">
        <ele>50</ele>
        <time>2021-12-01T10:00:00Z</time>
      </trkpt>
      <trkpt lat="43.11684" lon="6.34104">
        <ele>48</ele>
        <time>2021-12-01T10:00:09Z</time>
      </trkpt>
      <trkpt lat="43.11694" lon="6.34105">
        <ele>48</ele>
        <time>2021-12-01T10:00:11Z</time>
      </trkpt>
      <trkpt lat="43.11705" lon="6.3411">
        <ele>48</ele>
        <time>2021-12-01T10:00:13Z</time>
      </trkpt>
      <trkpt lat="43.11739" lon="6.34145">
        <ele>44</ele>
        <time>2021-12-01T10:00:20Z</time>
      </trkpt>
      <trkpt lat="43.11768" lon="6.34172">
        <ele>41</ele>
        <time>2021-12-01T10:00:27Z</time>
      </trkpt>
      <trkpt lat="43.11797" lon="6.34191">
        <ele>40</ele>
        <time>2021-12-01T10:00:32Z</time>
      </trkpt>
      <trkpt lat="43.11818" lon="6.34202">
        <ele>38</ele>
        <time>2021-12-01T10:00:36Z</time>
      </trkpt>
      <trkpt lat="43.11849" lon="6.34207">
        <ele>35</ele>
        <time>2021-12-01T10:00:42Z</time>
      </trkpt>
      <trkpt lat="43.11858" lon="6.34204">
        <ele>35</ele>
        <time>2021-12-01T10:00:43Z</time>
      </trkpt>
      <trkpt lat="43.11867" lon="6.34198">
        <ele>35</ele>
        <time>2021-12-01T10:00:45Z</time>
      </trkpt>
      <trkpt lat="43.11895" lon="6.34159">
        <ele>35</ele>
        <time>2021-12-01T10:00:52Z</time>
      </trkpt>
      <trkpt lat="43.11919" lon="6.34108">
        <ele>35</ele>
        <time>2021-12-01T10:01:00Z</time>
      </trkpt>
      <trkpt lat="43.11955" lon="6.34049">
        <ele>38</ele>
        <time>2021-12-01T10:01:10Z</time>
      </trkpt>
      <trkpt lat="43.11963" lon="6.34022">
        <ele>38</ele>
        <time>2021-12-01T10:01:14Z</time>
      </trkpt>
      <trkpt lat="43.11993" lon="6.33988">
        <ele>38</ele>
        <time>2021-12-01T10:01:21Z</time>
      </trkpt>
      <trkpt lat="43.12064" lon="6.33958">
        <ele>47</ele>
        <time>2021-12-01T10:01:34Z</time>
      </trkpt>
      <trkpt lat="43.12096" lon="6.33948">
        <ele>52</ele>
        <time>2021-12-01T10:01:40Z</time>
      </trkpt>
      <trkpt lat="43.12164" lon="6.33923">
        <ele>66</ele>
        <time>2021-12-01T10:01:53Z</time>
      </trkpt>
      <trkpt lat="43.12214" lon="6.33917">
        <ele>81</ele>
        <time>2021-12-01T10:02:01Z</time>
      </trkpt>
      <trkpt lat="43.12232" lon="6.33911">
        <ele>85</ele>
        <time>2021-12-01T10:02:05Z</time>
      </trkpt>
      <trkpt lat="43.12247" lon="6.33885">
        <ele>88</ele>
        <time>2021-12-01T10:02:09Z</time>
      </trkpt>
      <trkpt lat="43.12254" lon="6.33868">
        <ele>89</ele>
        <time>2021-12-01T10:02:12Z</time>
      </trkpt>
      <trkpt lat="43.12261" lon="6.33841">
        <ele>90</ele>
        <time>2021-12-01T10:02:15Z</time>
      </trkpt>
      <trkpt lat="43.12281" lon="6.33799">
        <ele>93</ele>
        <time>2021-12-01T10:02:22Z</time>
      </trkpt>
      <trkpt lat="43.1229" lon="6.33767">
        <ele>92</ele>
        <time>2021-12-01T10:02:26Z</time>
      </trkpt>
      <trkpt lat="43.12287" lon="6.33734">
        <ele>91</ele>
        <time>2021-12-01T10:02:31Z</time>
      </trkpt>
      <trkpt lat="43.12266" lon="6.33674">
        <ele>95</ele>
        <time>2021-12-01T10:02:39Z</time>
      </trkpt>
      <trkpt lat="43.12263" lon="6.33645">
        <ele>98</ele>
        <time>2021-12-01T10:02:43Z</time>
      </trkpt>
      <trkpt lat="43.12264" lon="6.33614">
        <ele>101</ele>
        <time>2021-12-01T10:02:47Z</time>
      </trkpt>
      <trkpt lat="43.12268" lon="6.33575">
        <ele>103</ele>
        <time>2021-12-01T10:02:52Z</time>
      </trkpt>
      <trkpt lat="43.1228" lon="6.33535">
        <ele>101</ele>
        <time>2021-12-01T10:02:58Z</time>
      </trkpt>
      <trkpt lat="43.12278" lon="6.33483">
        <ele>98</ele>
        <time>2021-12-01T10:03:05Z</time>
      </trkpt>
      <trkpt lat="43.12254" lon="6.33393">
        <ele>92</ele>
        <time>2021-12-01T10:03:17Z</time>
      </trkpt>
      <trkpt lat="43.12239" lon="6.33326">
        <ele>89</ele>
        <time>2021-12-01T10:03:26Z</time>
      </trkpt>
      <trkpt lat="43.12204" lon="6.33276">
        <ele>77</ele>
        <time>2021-12-01T10:03:35Z</time>
      </trkpt>
      <trkpt lat="43.12168" lon="6.33248">
        <ele>72</ele>
        <time>2021-12-01T10:03:42Z</time>
      </trkpt>
      <trkpt lat="43.12162" lon="6.33239">
        <ele>72</ele>
        <time>2021-12-01T10:03:44Z</time>
      </trkpt>
      <trkpt lat="43.12151" lon="6.33229">
        <ele>71</ele>
        <time>2021-12-01T10:03:46Z</time>
      </trkpt>
      <trkpt lat="43.12129" lon="6.332">
        <ele>71</ele>
        <time>2021-12-01T10:03:52Z</time>
      </trkpt>
      <trkpt lat="43.12118" lon="6.33179">
        <ele>71</ele>
        <time>2021-12-01T10:03:55Z</time>
      </trkpt>
      <trkpt lat="43.12104" lon="6.33157">
        <ele>71</ele>
        <time>2021-12-01T10:03:59Z</time>
      </trkpt>
      <trkpt lat="43.12094" lon="6.33152">
        <ele>71</ele>
        <time>2021-12-01T10:04:01Z</time>
      </trkpt>
      <trkpt lat="43.12084" lon="6.33142">
        <ele>71</ele>
        <time>2021-12-01T10:04:03Z</time>
      </trkpt>
      <trkpt lat="43.12072" lon="6.33122">
        <ele>72</ele>
        <time>2021-12-01T10:04:06Z</time>
      </trkpt>
      <trkpt lat="43.12082" lon="6.33111">
        <ele>73</ele>
        <time>2021-12-01T10:04:09Z</time>
      </trkpt>
      <trkpt lat="43.12148" lon="6.33051">
        <ele>68</ele>
        <time>2021-12-01T10:04:23Z</time>
      </trkpt>
      <trkpt lat="43.12181" lon="6.33031">
        <ele>63</ele>
        <time>2021-12-01T10:04:29Z</time>
      </trkpt>
      <trkpt lat="43.12229" lon="6.3302">
        <ele>56</ele>
        <time>2021-12-01T10:04:38Z</time>
      </trkpt>
      <trkpt lat="43.12218" lon="6.33005">
        <ele>58</ele>
        <time>2021-12-01T10:04:41Z</time>
      </trkpt>
      <trkpt lat="43.12205" lon="6.3294">
        <ele>61</ele>
        <time>2021-12-01T10:04:49Z</time>
      </trkpt>
      <trkpt lat="43.12189" lon="6.32894">
        <ele>65</ele>
        <time>2021-12-01T10:04:56Z</time>
      </trkpt>
      <trkpt lat="43.12181" lon="6.32861">
        <ele>68</ele>
        <time>2021-12-01T10:05:01Z</time>
      </trkpt>
      <trkpt lat="43.12181" lon="6.32849">
        <ele>68</ele>
        <time>2021-12-01T10:05:02Z</time>
      </trkpt>
      <trkpt lat="43.12187" lon="6.32836">
        <ele>68</ele>
        <time>2021-12-01T10:05:04Z</time>
      </trkpt>
      <trkpt lat="43.12213" lon="6.32795">
        <ele>68</ele>
        <time>2021-12-01T10:05:11Z</time>
      </trkpt>
      <trkpt lat="43.12216" lon="6.3278">
        <ele>69</ele>
        <time>2021-12-01T10:05:13Z</time>
      </trkpt>
      <trkpt lat="43.12215" lon="6.32767">
        <ele>70</ele>
        <time>2021-12-01T10:05:15Z</time>
      </trkpt>
      <trkpt lat="43.12209" lon="6.32753">
        <ele>71</ele>
        <time>2021-12-01T10:05:17Z</time>
      </trkpt>
      <trkpt lat="43.12165" lon="6.32677">
        <ele>77</ele>
        <time>2021-12-01T10:05:30Z</time>
      </trkpt>
      <trkpt lat="43.12056" lon="6.32543">
        <ele>71</ele>
        <time>2021-12-01T10:05:56Z</time>
      </trkpt>
      <trkpt lat="43.12072" lon="6.32515">
        <ele>66</ele>
        <time>2021-12-01T10:06:00Z</time>
      </trkpt>
      <trkpt lat="43.12068" lon="6.32496">
        <ele>65</ele>
        <time>2021-12-01T10:06:03Z</time>
      </trkpt>
      <trkpt lat="43.12058" lon="6.32471">
        <ele>65</ele>
        <time>2021-12-01T10:06:07Z</time>
      </trkpt>
      <trkpt lat="43.12051" lon="6.32445">
        <ele>65</ele>
        <time>2021-12-01T10:06:10Z</time>
      </trkpt>
      <trkpt lat="43.12051" lon="6.32427">
        <ele>64</ele>
        <time>2021-12-01T10:06:12Z</time>
      </trkpt>
      <trkpt lat="43.12049" lon="6.32414">
        <ele>64</ele>
        <time>2021-12-01T10:06:14Z</time>
      </trkpt>
      <trkpt lat="43.12039" lon="6.32395">
        <ele>64</ele>
        <time>2021-12-01T10:06:17Z</time>
      </trkpt>
      <trkpt lat="43.12028" lon="6.32365">
        <ele>64</ele>
        <time>2021-12-01T10:06:22Z</time>
      </trkpt>
      <trkpt lat="43.12023" lon="6.32343">
        <ele>64</ele>
        <time>2021-12-01T10:06:25Z</time>
      </trkpt>
      <trkpt lat="43.12019" lon="6.32316">
        <ele>66</ele>
        <time>2021-12-01T10:06:28Z</time>
      </trkpt>
      <trkpt lat="43.12015" lon="6.32308">
        <ele>65</ele>
        <time>2021-12-01T10:06:29Z</time>
      </trkpt>
      <trkpt lat="43.11999" lon="6.32289">
        <ele>64</ele>
        <time>2021-12-01T10:06:33Z</time>
      </trkpt>
      <trkpt lat="43.1198" lon="6.32235">
        <ele>65</ele>
        <time>2021-12-01T10:06:41Z</time>
      </trkpt>
      <trkpt lat="43.11981" lon="6.3222">
        <ele>65</ele>
        <time>2021-12-01T10:06:43Z</time>
      </trkpt>
      <trkpt lat="43.11987" lon="6.32186">
        <ele>65</ele>
        <time>2021-12-01T10:06:47Z</time>
      </trkpt>
      <trkpt lat="43.11986" lon="6.32148">
        <ele>62</ele>
        <time>2021-12-01T10:06:52Z</time>
      </trkpt>
      <trkpt lat="43.11982" lon="6.32128">
        <ele>59</ele>
        <time>2021-12-01T10:06:55Z</time>
      </trkpt>
      <trkpt lat="43.11959" lon="6.3205">
        <ele>52</ele>
        <time>2021-12-01T10:07:06Z</time>
      </trkpt>
      <trkpt lat="43.1196" lon="6.32026">
        <ele>51</ele>
        <time>2021-12-01T10:07:09Z</time>
      </trkpt>
      <trkpt lat="43.11969" lon="6.3201">
        <ele>49</ele>
        <time>2021-12-01T10:07:12Z</time>
      </trkpt>
      <trkpt lat="43.11982" lon="6.32014">
        <ele>48</ele>
        <time>2021-12-01T10:07:14Z</time>
      </trkpt>
      <trkpt lat="43.11991" lon="6.32009">
        <ele>47</ele>
        <time>2021-12-01T10:07:16Z</time>
      </trkpt>
      <trkpt lat="43.12009" lon="6.31978">
        <ele>45</ele>
        <time>2021-12-01T10:07:21Z</time>
      </trkpt>
      <trkpt lat="43.12021" lon="6.31979">
        <ele>45</ele>
        <time>2021-12-01T10:07:23Z</time>
      </trkpt>
      <trkpt lat="43.12036" lon="6.31986">
        <ele>46</ele>
        <time>2021-12-01T10:07:26Z</time>
      </trkpt>
      <trkpt lat="43.12101" lon="6.31994">
        <ele>47</ele>
        <time>2021-12-01T10:07:38Z</time>
      </trkpt>
      <trkpt lat="43.12117" lon="6.31999">
        <ele>47</ele>
        <time>2021-12-01T10:07:41Z</time>
      </trkpt>
      <trkpt lat="43.12129" lon="6.32009">
        <ele>48</ele>
        <time>2021-12-01T10:07:43Z</time>
      </trkpt>
      <trkpt lat="43.12163" lon="6.32042">
        <ele>51</ele>
        <time>2021-12-01T10:07:50Z</time>
      </trkpt>
      <trkpt lat="43.12172" lon="6.32053">
        <ele>52</ele>
        <time>2021-12-01T10:07:53Z</time>
      </trkpt>
      <trkpt lat="43.1218" lon="6.32073">
        <ele>53</ele>
        <time>2021-12-01T10:07:56Z</time>
      </trkpt>
      <trkpt lat="43.12187" lon="6.32116">
        <ele>57</ele>
        <time>2021-12-01T10:08:01Z</time>
      </trkpt>
      <trkpt lat="43.12193" lon="6.32118">
        <ele>57</ele>
        <time>2021-12-01T10:08:02Z</time>
      </trkpt>
      <trkpt lat="43.12199" lon="6.32117">
        <ele>57</ele>
        <time>2021-12-01T10:08:03Z</time>
      </trkpt>
      <trkpt lat="43.12207" lon="6.32107">
        <ele>55</ele>
        <time>2021-12-01T10:08:05Z</time>
      </trkpt>
      <trkpt lat="43.12223" lon="6.32063">
        <ele>51</ele>
        <time>2021-12-01T10:08:12Z</time>
      </trkpt>
      <trkpt lat="43.12227" lon="6.3206">
        <ele>51</ele>
        <time>2021-12-01T10:08:13Z</time>
      </trkpt>
      <trkpt lat="43.12255" lon="6.32062">
        <ele>51</ele>
        <time>2021-12-01T10:08:18Z</time>
      </trkpt>
      <trkpt lat="43.12261" lon="6.32058">
        <ele>51</ele>
        <time>2021-12-01T10:08:19Z</time>
      </trkpt>
      <trkpt lat="43.12272" lon="6.32035">
        <ele>51</ele>
        <time>2021-12-01T10:08:22Z</time>
      </trkpt>
      <trkpt lat="43.12276" lon="6.32013">
        <ele>51</ele>
        <time>2021-12-01T10:08:25Z</time>
      </trkpt>
      <trkpt lat="43.12283" lon="6.32003">
        <ele>51</ele>
        <time>2021-12-01T10:08:27Z</time>
      </trkpt>
      <trkpt lat="43.12291" lon="6.32001">
        <ele>52</ele>
        <time>2021-12-01T10:08:28Z</time>
      </trkpt>
      <trkpt lat="43.12305" lon="6.32007">
        <ele>54</ele>
        <time>2021-12-01T10:08:31Z</time>
      </trkpt>
      <trkpt lat="43.12313" lon="6.32006">
        <ele>54</ele>
        <time>2021-12-01T10:08:33Z</time>
      </trkpt>
      <trkpt lat="43.12316" lon="6.31996">
        <ele>55</ele>
        <time>2021-12-01T10:08:34Z</time>
      </trkpt>
      <trkpt lat="43.12315" lon="6.31986">
        <ele>55</ele>
        <time>2021-12-01T10:08:35Z</time>
      </trkpt>
      <trkpt lat="43.12296" lon="6.31965">
        <ele>55</ele>
        <time>2021-12-01T10:08:40Z</time>
      </trkpt>
      <trkpt lat="43.12294" lon="6.31954">
        <ele>56</ele>
        <time>2021-12-01T10:08:41Z</time>
      </trkpt>
      <trkpt lat="43.12296" lon="6.31944">
        <ele>57</ele>
        <time>2021-12-01T10:08:42Z</time>
      </trkpt>
      <trkpt lat="43.12302" lon="6.31939">
        <ele>58</ele>
        <time>2021-12-01T10:08:44Z</time>
      </trkpt>
      <trkpt lat="43.12316" lon="6.31935">
        <ele>60</ele>
        <time>2021-12-01T10:08:46Z</time>
      </trkpt>
      <trkpt lat="43.12337" lon="6.31921">
        <ele>64</ele>
        <time>2021-12-01T10:08:50Z</time>
      </trkpt>
      <trkpt lat="43.12363" lon="6.31899">
        <ele>68</ele>
        <time>2021-12-01T10:08:56Z</time>
      </trkpt>
      <trkpt lat="43.12413" lon="6.3188">
        <ele>77</ele>
        <time>2021-12-01T10:09:05Z</time>
      </trkpt>
      <trkpt lat="43.1245" lon="6.31853">
        <ele>84</ele>
        <time>2021-12-01T10:09:12Z</time>
      </trkpt>
      <trkpt lat="43.12472" lon="6.31853">
        <ele>85</ele>
        <time>2021-12-01T10:09:16Z</time>
      </trkpt>
      <trkpt lat="43.1248" lon="6.31848">
        <ele>86</ele>
        <time>2021-12-01T10:09:18Z</time>
      </trkpt>
      <trkpt lat="43.1249" lon="6.31851">
        <ele>86</ele>
        <time>2021-12-01T10:09:20Z</time>
      </trkpt>
      <trkpt lat="43.12495" lon="6.31838">
        <ele>87</ele>
        <time>2021-12-01T10:09:22Z</time>
      </trkpt>
      <trkpt lat="43.12509" lon="6.31825">
        <ele>88</ele>
        <time>2021-12-01T10:09:25Z</time>
      </trkpt>
      <trkpt lat="43.12536" lon="6.31811">
        <ele>85</ele>
        <time>2021-12-01T10:09:30Z</time>
      </trkpt>
      <trkpt lat="43.12586" lon="6.3179">
        <ele>79</ele>
        <time>2021-12-01T10:09:39Z</time>
      </trkpt>
      <trkpt lat="43.12635" lon="6.31761">
        <ele>70</ele>
        <time>2021-12-01T10:09:49Z</time>
      </trkpt>
      <trkpt lat="43.12679" lon="6.31759">
        <ele>66</ele>
        <time>2021-12-01T10:09:56Z</time>
      </trkpt>
      <trkpt lat="43.127" lon="6.31744">
        <ele>65</ele>
        <time>2021-12-01T10:10:01Z</time>
      </trkpt>
      <trkpt lat="43.12745" lon="6.31727">
        <ele>62</ele>
        <time>2021-12-01T10:10:09Z</time>
      </trkpt>
      <trkpt lat="43.12766" lon="6.31729">
        <ele>62</ele>
        <time>2021-12-01T10:10:13Z</time>
      </trkpt>
      <trkpt lat="43.12787" lon="6.31723">
        <ele>61</ele>
        <time>2021-12-01T10:10:17Z</time>
      </trkpt>
      <trkpt lat="43.12835" lon="6.31705">
        <ele>59</ele>
        <time>2021-12-01T10:10:25Z</time>
      </trkpt>
      <trkpt lat="43.12854" lon="6.31703">
        <ele>58</ele>
        <time>2021-12-01T10:10:29Z</time>
      </trkpt>
      <trkpt lat="43.12867" lon="6.31709">
        <ele>58</ele>
        <time>2021-12-01T10:10:31Z</time>
      </trkpt>
      <trkpt lat="43.12884" lon="6.31728">
        <ele>58</ele>
        <time>2021-12-01T10:10:35Z</time>
      </trkpt>
      <trkpt lat="43.12891" lon="6.31729">
        <ele>58</ele>
        <time>2021-12-01T10:10:36Z</time>
      </trkpt>
      <trkpt lat="43.12926" lon="6.31721">
        <ele>56</ele>
        <time>2021-12-01T10:10:43Z</time>
      </trkpt>
      <trkpt lat="43.12956" lon="6.31738">
        <ele>55</ele>
        <time>2021-12-01T10:10:48Z</time>
      </trkpt>
      <trkpt lat="43.12983" lon="6.31729">
        <ele>53</ele>
        <time>2021-12-01T10:10:53Z</time>
      </trkpt>
      <trkpt lat="43.13015" lon="6.31736">
        <ele>52</ele>
        <time>2021-12-01T10:10:59Z</time>
      </trkpt>
      <trkpt lat="43.13023" lon="6.31743">
        <ele>52</ele>
        <time>2021-12-01T10:11:01Z</time>
      </trkpt>
      <trkpt lat="43.13049" lon="6.31747">
        <ele>52</ele>
        <time>2021-12-01T10:11:06Z</time>
      </trkpt>
      <trkpt lat="43.13055" lon="6.31753">
        <ele>52</ele>
        <time>2021-12-01T10:11:07Z</time>
      </trkpt>
      <trkpt lat="43.13062" lon="6.31766">
        <ele>53</ele>
        <time>2021-12-01T10:11:09Z</time>
      </trkpt>
      <trkpt lat="43.13079" lon="6.31781">
        <ele>53</ele>
        <time>2021-12-01T10:11:13Z</time>
      </trkpt>
      <trkpt lat="43.13098" lon="6.31791">
        <ele>53</ele>
        <time>2021-12-01T10:11:16Z</time>
      </trkpt>
      <trkpt lat="43.13106" lon="6.31788">
        <ele>53</ele>
        <time>2021-12-01T10:11:18Z</time>
      </trkpt>
      <trkpt lat="43.13121" lon="6.31777">
        <ele>51</ele>
        <time>2021-12-01T10:11:21Z</time>
      </trkpt>
      <trkpt lat="43.1314" lon="6.31773">
        <ele>50</ele>
        <time>2021-12-01T10:11:24Z</time>
      </trkpt>
      <trkpt lat="43.13184" lon="6.3179">
        <ele>49</ele>
        <time>2021-12-01T10:11:32Z</time>
      </trkpt>
      <trkpt lat="43.132" lon="6.31803">
        <ele>48</ele>
        <time>2021-12-01T10:11:36Z</time>
      </trkpt>
      <trkpt lat="43.13207" lon="6.31812">
        <ele>48</ele>
        <time>2021-12-01T10:11:37Z</time>
      </trkpt>
      <trkpt lat="43.1321" lon="6.31827">
        <ele>48</ele>
        <time>2021-12-01T10:11:39Z</time>
      </trkpt>
      <trkpt lat="43.13208" lon="6.31862">
        <ele>51</ele>
        <time>2021-12-01T10:11:44Z</time>
      </trkpt>
      <trkpt lat="43.13209" lon="6.31883">
        <ele>52</ele>
        <time>2021-12-01T10:11:47Z</time>
      </trkpt>
      <trkpt lat="43.13205" lon="6.31922">
        <ele>55</ele>
        <time>2021-12-01T10:11:52Z</time>
      </trkpt>
      <trkpt lat="43.1321" lon="6.31949">
        <ele>55</ele>
        <time>2021-12-01T10:11:55Z</time>
      </trkpt>
      <trkpt lat="43.13215" lon="6.31964">
        <ele>55</ele>
        <time>2021-12-01T10:11:57Z</time>
      </trkpt>
      <trkpt lat="43.13221" lon="6.31976">
        <ele>54</ele>
        <time>2021-12-01T10:11:59Z</time>
      </trkpt>
      <trkpt lat="43.13253" lon="6.32021">
        <ele>50</ele>
        <time>2021-12-01T10:12:07Z</time>
      </trkpt>
      <trkpt lat="43.13258" lon="6.32037">
        <ele>50</ele>
        <time>2021-12-01T10:12:10Z</time>
      </trkpt>
      <trkpt lat="43.13262" lon="6.32073">
        <ele>51</ele>
        <time>2021-12-01T10:12:14Z</time>
      </trkpt>
      <trkpt lat="43.13263" lon="6.32111">
        <ele>53</ele>
        <time>2021-12-01T10:12:19Z</time>
      </trkpt>
      <trkpt lat="43.13271" lon="6.3213">
        <ele>53</ele>
        <time>2021-12-01T10:12:22Z</time>
      </trkpt>
      <trkpt lat="43.13319" lon="6.32147">
        <ele>48</ele>
        <time>2021-12-01T10:12:31Z</time>
      </trkpt>
      <trkpt lat="43.13339" lon="6.32161">
        <ele>46</ele>
        <time>2021-12-01T10:12:35Z</time>
      </trkpt>
      <trkpt lat="43.13363" lon="6.32173">
        <ele>43</ele>
        <time>2021-12-01T10:12:40Z</time>
      </trkpt>
      <trkpt lat="43.1337" lon="6.32182">
        <ele>43</ele>
        <time>2021-12-01T10:12:41Z</time>
      </trkpt>
      <trkpt lat="43.13392" lon="6.32191">
        <ele>40</ele>
        <time>2021-12-01T10:12:45Z</time>
      </trkpt>
      <trkpt lat="43.13417" lon="6.32206">
        <ele>38</ele>
        <time>2021-12-01T10:12:50Z</time>
      </trkpt>
      <trkpt lat="43.13426" lon="6.32216">
        <ele>38</ele>
        <time>2021-12-01T10:12:52Z</time>
      </trkpt>
      <trkpt lat="43.13438" lon="6.32225">
        <ele>37</ele>
        <time>2021-12-01T10:12:55Z</time>
      </trkpt>
      <trkpt lat="43.13465" lon="6.3225">
        <ele>37</ele>
        <time>2021-12-01T10:13:01Z</time>
      </trkpt>
      <trkpt lat="43.13479" lon="6.32266">
        <ele>37</ele>
        <time>2021-12-01T10:13:04Z</time>
      </trkpt>
      <trkpt lat="43.1351" lon="6.32285">
        <ele>36</ele>
        <time>2021-12-01T10:13:10Z</time>
      </trkpt>
      <trkpt lat="43.13538" lon="6.32289">
        <ele>34</ele>
        <time>2021-12-01T10:13:15Z</time>
      </trkpt>
      <trkpt lat="43.13584" lon="6.32272">
        <ele>30</ele>
        <time>2021-12-01T10:13:23Z</time>
      </trkpt>
      <trkpt lat="43.13592" lon="6.32271">
        <ele>29</ele>
        <time>2021-12-01T10:13:25Z</time>
      </trkpt>
      <trkpt lat="43.13598" lon="6.32275">
        <ele>29</ele>
        <time>2021-12-01T10:13:26Z</time>
      </trkpt>
      <trkpt lat="43.13608" lon="6.32296">
        <ele>29</ele>
        <time>2021-12-01T10:13:29Z</time>
      </trkpt>
      <trkpt lat="43.1363" lon="6.32323">
        <ele>28</ele>
        <time>2021-12-01T10:13:34Z</time>
      </trkpt>
      <trkpt lat="43.13638" lon="6.3234">
        <ele>27</ele>
        <time>2021-12-01T10:13:37Z</time>
      </trkpt>
      <trkpt lat="43.1365" lon="6.32392">
        <ele>26</ele>
        <time>2021-12-01T10:13:44Z</time>
      </trkpt>
      <trkpt lat="43.13653" lon="6.32414">
        <ele>26</ele>
        <time>2021-12-01T10:13:47Z</time>
      </trkpt>
      <trkpt lat="43.13654" lon="6.32461">
        <ele>26</ele>
        <time>2021-12-01T10:13:53Z</time>
      </trkpt>
      <trkpt lat="43.13661" lon="6.32471">
        <ele>26</ele>
        <time>2021-12-01T10:13:55Z</time>
      </trkpt>
      <trkpt lat="43.13671" lon="6.32498">
        <ele>26</ele>
        <time>2021-12-01T10:13:59Z</time>
      </trkpt>
      <trkpt lat="43.13678" lon="6.32548">
        <ele>24</ele>
        <time>2021-12-01T10:14:06Z</time>
      </trkpt>
      <trkpt lat="43.13689" lon="6.32561">
        <ele>23</ele>
        <time>2021-12-01T10:14:08Z</time>
      </trkpt>
      <trkpt lat="43.13709" lon="6.32597">
        <ele>22</ele>
        <time>2021-12-01T10:14:14Z</time>
      </trkpt>
      <trkpt lat="43.13717" lon="6.32602">
        <ele>21</ele>
        <time>2021-12-01T10:14:16Z</time>
      </trkpt>
      <trkpt lat="43.13732" lon="6.32595">
        <ele>21</ele>
        <time>2021-12-01T10:14:18Z</time>
      </trkpt>
      <trkpt lat="43.13744" lon="6.32585">
        <ele>20</ele>
        <time>2021-12-01T10:14:21Z</time>
      </trkpt>
      <trkpt lat="43.13752" lon="6.3258">
        <ele>20</ele>
        <time>2021-12-01T10:14:22Z</time>
      </trkpt>
      <trkpt lat="43.13768" lon="6.32576">
        <ele>20</ele>
        <time>2021-12-01T10:14:25Z</time>
      </trkpt>
      <trkpt lat="43.13812" lon="6.3257">
        <ele>20</ele>
        <time>2021-12-01T10:14:33Z</time>
      </trkpt>
      <trkpt lat="43.1383" lon="6.32562">
        <ele>20</ele>
        <time>2021-12-01T10:14:37Z</time>
      </trkpt>
      <trkpt lat="43.1384" lon="6.32539">
        <ele>20</ele>
        <time>2021-12-01T10:14:40Z</time>
      </trkpt>
      <trkpt lat="43.1384" lon="6.32528">
        <ele>20</ele>
        <time>2021-12-01T10:14:41Z</time>
      </trkpt>
      <trkpt lat="43.13833" lon="6.32494">
        <ele>20</ele>
        <time>2021-12-01T10:14:46Z</time>
      </trkpt>
      <trkpt lat="43.13805" lon="6.32395">
        <ele>21</ele>
        <time>2021-12-01T10:15:00Z</time>
      </trkpt>
      <trkpt lat="43.13784" lon="6.32308">
        <ele>22</ele>
        <time>2021-12-01T10:15:12Z</time>
      </trkpt>
      <trkpt lat="43.13743" lon="6.32195">
        <ele>26</ele>
        <time>2021-12-01T10:15:28Z</time>
      </trkpt>
      <trkpt lat="43.13737" lon="6.32172">
        <ele>27</ele>
        <time>2021-12-01T10:15:31Z</time>
      </trkpt>
      <trkpt lat="43.13734" lon="6.32152">
        <ele>28</ele>
        <time>2021-12-01T10:15:34Z</time>
      </trkpt>
      <trkpt lat="43.13707" lon="6.32103">
        <ele>29</ele>
        <time>2021-12-01T10:15:42Z</time>
      </trkpt>
      <trkpt lat="43.13683" lon="6.32083">
        <ele>29</ele>
        <time>2021-12-01T10:15:47Z</time>
      </trkpt>
      <trkpt lat="43.13672" lon="6.3206">
        <ele>30</ele>
        <time>2021-12-01T10:15:50Z</time>
      </trkpt>
      <trkpt lat="43.13662" lon="6.32033">
        <ele>32</ele>
        <time>2021-12-01T10:15:54Z</time>
      </trkpt>
      <trkpt lat="43.13631" lon="6.3198">
        <ele>34</ele>
        <time>2021-12-01T10:16:03Z</time>
      </trkpt>
      <trkpt lat="43.13607" lon="6.31949">
        <ele>34</ele>
        <time>2021-12-01T10:16:09Z</time>
      </trkpt>
      <trkpt lat="43.1358" lon="6.31909">
        <ele>35</ele>
        <time>2021-12-01T10:16:16Z</time>
      </trkpt>
      <trkpt lat="43.13477" lon="6.31765">
        <ele>39</ele>
        <time>2021-12-01T10:16:42Z</time>
      </trkpt>
      <trkpt lat="43.13473" lon="6.31754">
        <ele>39</ele>
        <time>2021-12-01T10:16:44Z</time>
      </trkpt>
      <trkpt lat="43.13443" lon="6.31719">
        <ele>40</ele>
        <time>2021-12-01T10:16:51Z</time>
      </trkpt>
      <trkpt lat="43.13434" lon="6.31693">
        <ele>40</ele>
        <time>2021-12-01T10:16:55Z</time>
      </trkpt>
      <trkpt lat="43.1343" lon="6.31656">
        <ele>42</ele>
        <time>2021-12-01T10:17:00Z</time>
      </trkpt>
      <trkpt lat="43.13415" lon="6.31591">
        <ele>44</ele>
        <time>2021-12-01T10:17:08Z</time>
      </trkpt>
      <trkpt lat="43.134" lon="6.31509">
        <ele>45</ele>
        <time>2021-12-01T10:17:19Z</time>
      </trkpt>
      <trkpt lat="43.13398" lon="6.31479">
        <ele>46</ele>
        <time>2021-12-01T10:17:23Z</time>
      </trkpt>
      <trkpt lat="43.13407" lon="6.31423">
        <ele>48</ele>
        <time>2021-12-01T10:17:31Z</time>
      </trkpt>
      <trkpt lat="43.13412" lon="6.31376">
        <ele>49</ele>
        <time>2021-12-01T10:17:37Z</time>
      </trkpt>
      <trkpt lat="43.13402" lon="6.31295">
        <ele>50</ele>
        <time>2021-12-01T10:17:48Z</time>
      </trkpt>
      <trkpt lat="43.13405" lon="6.31291">
        <ele>50</ele>
        <time>2021-12-01T10:17:48Z</time>
      </trkpt>
      <trkpt lat="43.13411" lon="6.31276">
        <ele>51</ele>
        <time>2021-12-01T10:17:51Z</time>
      </trkpt>
      <trkpt lat="43.13409" lon="6.31249">
        <ele>51</ele>
        <time>2021-12-01T10:17:54Z</time>
      </trkpt>
      <trkpt lat="43.13413" lon="6.31227">
        <ele>51</ele>
        <time>2021-12-01T10:17:57Z</time>
      </trkpt>
      <trkpt lat="43.13419" lon="6.31207">
        <ele>52</ele>
        <time>2021-12-01T10:18:00Z</time>
      </trkpt>
      <trkpt lat="43.13437" lon="6.31173">
        <ele>57</ele>
        <time>2021-12-01T10:18:05Z</time>
      </trkpt>
      <trkpt lat="43.13449" lon="6.31159">
        <ele>59</ele>
        <time>2021-12-01T10:18:08Z</time>
      </trkpt>
      <trkpt lat="43.13453" lon="6.31149">
        <ele>60</ele>
        <time>2021-12-01T10:18:10Z</time>
      </trkpt>
      <trkpt lat="43.13456" lon="6.31135">
        <ele>61</ele>
        <time>2021-12-01T10:18:11Z</time>
      </trkpt>
      <trkpt lat="43.13455" lon="6.31114">
        <ele>61</ele>
        <time>2021-12-01T10:18:14Z</time>
      </trkpt>
      <trkpt lat="43.13449" lon="6.31061">
        <ele>61</ele>
        <time>2021-12-01T10:18:21Z</time>
      </trkpt>
      <trkpt lat="43.13451" lon="6.31029">
        <ele>62</ele>
        <time>2021-12-01T10:18:25Z</time>
      </trkpt>
      <trkpt lat="43.13457" lon="6.31013">
        <ele>63</ele>
        <time>2021-12-01T10:18:28Z</time>
      </trkpt>
      <trkpt lat="43.13474" lon="6.30979">
        <ele>65</ele>
        <time>2021-12-01T10:18:33Z</time>
      </trkpt>
      <trkpt lat="43.13478" lon="6.30973">
        <ele>65</ele>
        <time>2021-12-01T10:18:34Z</time>
      </trkpt>
      <trkpt lat="43.13476" lon="6.30969">
        <ele>65</ele>
        <time>2021-12-01T10:18:35Z</time>
      </trkpt>
      <trkpt lat="43.13469" lon="6.30969">
        <ele>64</ele>
        <time>2021-12-01T10:18:36Z</time>
      </trkpt>
      <trkpt lat="43.13451" lon="6.30964">
        <ele>63</ele>
        <time>2021-12-01T10:18:39Z</time>
      </trkpt>
      <trkpt lat="43.13444" lon="6.30965">
        <ele>62</ele>
        <time>2021-12-01T10:18:40Z</time>
      </trkpt>
      <trkpt lat="43.13439" lon="6.30962">
        <ele>62</ele>
        <time>2021-12-01T10:18:41Z</time>
      </trkpt>
      <trkpt lat="43.13439" lon="6.30958">
        <ele>62</ele>
        <time>2021-12-01T10:18:42Z</time>
      </trkpt>
      <trkpt lat="43.135" lon="6.30808">
        <ele>68</ele>
        <time>2021-12-01T10:19:04Z</time>
      </trkpt>
      <trkpt lat="43.13513" lon="6.30783">
        <ele>70</ele>
        <time>2021-12-01T10:19:08Z</time>
      </trkpt>
      <trkpt lat="43.13518" lon="6.3078">
        <ele>71</ele>
        <time>2021-12-01T10:19:09Z</time>
      </trkpt>
      <trkpt lat="43.13533" lon="6.30776">
        <ele>73</ele>
        <time>2021-12-01T10:19:12Z</time>
      </trkpt>
      <trkpt lat="43.1355" lon="6.30776">
        <ele>75</ele>
        <time>2021-12-01T10:19:15Z</time>
      </trkpt>
      <trkpt lat="43.13562" lon="6.30774">
        <ele>76</ele>
        <time>2021-12-01T10:19:17Z</time>
      </trkpt>
      <trkpt lat="43.13578" lon="6.30769">
        <ele>78</ele>
        <time>2021-12-01T10:19:20Z</time>
      </trkpt>
      <trkpt lat="43.13596" lon="6.30758">
        <ele>80</ele>
        <time>2021-12-01T10:19:24Z</time>
      </trkpt>
      <trkpt lat="43.13599" lon="6.30759">
        <ele>81</ele>
        <time>2021-12-01T10:19:24Z</time>
      </trkpt>
      <trkpt lat="43.13599" lon="6.30791">
        <ele>81</ele>
        <time>2021-12-01T10:19:28Z</time>
      </trkpt>
      <trkpt lat="43.13607" lon="6.30827">
        <ele>82</ele>
        <time>2021-12-01T10:19:33Z</time>
      </trkpt>
      <trkpt lat="43.13611" lon="6.30819">
        <ele>83</ele>
        <time>2021-12-01T10:19:34Z</time>
      </trkpt>
      <trkpt lat="43.13612" lon="6.30807">
        <ele>83</ele>
        <time>2021-12-01T10:19:36Z</time>
      </trkpt>
      <trkpt lat="43.13616" lon="6.30794">
        <ele>84</ele>
        <time>2021-12-01T10:19:38Z</time>
      </trkpt>
      <trkpt lat="43.13636" lon="6.30772">
        <ele>87</ele>
        <time>2021-12-01T10:19:42Z</time>
      </trkpt>
      <trkpt lat="43.13644" lon="6.30766">
        <ele>89</ele>
        <time>2021-12-01T10:19:44Z</time>
      </trkpt>
      <trkpt lat="43.13675" lon="6.30728">
        <ele>95</ele>
        <time>2021-12-01T10:19:51Z</time>
      </trkpt>
      <trkpt lat="43.13687" lon="6.30717">
        <ele>95</ele>
        <time>2021-12-01T10:19:54Z</time>
      </trkpt>
      <trkpt lat="43.13722" lon="6.30703">
        <ele>95</ele>
        <time>2021-12-01T10:20:00Z</time>
      </trkpt>
      <trkpt lat="43.13727" lon="6.30705">
        <ele>95</ele>
        <time>2021-12-01T10:20:01Z</time>
      </trkpt>
      <trkpt lat="43.13732" lon="6.30708">
        <ele>94</ele>
        <time>2021-12-01T10:20:02Z</time>
      </trkpt>
      <trkpt lat="43.13735" lon="6.30715">
        <ele>93</ele>
        <time>2021-12-01T10:20:03Z</time>
      </trkpt>
      <trkpt lat="43.13735" lon="6.30733">
        <ele>89</ele>
        <time>2021-12-01T10:20:06Z</time>
      </trkpt>
      <trkpt lat="43.13731" lon="6.30765">
        <ele>86</ele>
        <time>2021-12-01T10:20:10Z</time>
      </trkpt>
      <trkpt lat="43.13722" lon="6.30799">
        <ele>84</ele>
        <time>2021-12-01T10:20:15Z</time>
      </trkpt>
      <trkpt lat="43.1372" lon="6.3081">
        <ele>84</ele>
        <time>2021-12-01T10:20:16Z</time>
      </trkpt>
      <trkpt lat="43.13728" lon="6.30829">
        <ele>81</ele>
        <time>2021-12-01T10:20:19Z</time>
      </trkpt>
      <trkpt lat="43.13728" lon="6.30856">
        <ele>80</ele>
        <time>2021-12-01T10:20:22Z</time>
      </trkpt>
      <trkpt lat="43.13736" lon="6.30872">
        <ele>77</ele>
        <time>2021-12-01T10:20:25Z</time>
      </trkpt>
      <trkpt lat="43.13746" lon="6.30888">
        <ele>75</ele>
        <time>2021-12-01T10:20:28Z</time>
      </trkpt>
      <trkpt lat="43.13748" lon="6.30895">
        <ele>74</ele>
        <time>2021-12-01T10:20:29Z</time>
      </trkpt>
      <trkpt lat="43.13748" lon="6.30923">
        <ele>73</ele>
        <time>2021-12-01T10:20:32Z</time>
      </trkpt>
      <trkpt lat="43.1375" lon="6.30937">
        <ele>72</ele>
        <time>2021-12-01T10:20:34Z</time>
      </trkpt>
      <trkpt lat="43.13753" lon="6.30948">
        <ele>72</ele>
        <time>2021-12-01T10:20:36Z</time>
      </trkpt>
      <trkpt lat="43.13759" lon="6.30958">
        <ele>71</ele>
        <time>2021-12-01T10:20:37Z</time>
      </trkpt>
      <trkpt lat="43.13764" lon="6.30961">
        <ele>71</ele>
        <time>2021-12-01T10:20:38Z</time>
      </trkpt>
      <trkpt lat="43.13779" lon="6.31004">
        <ele>68</ele>
        <time>2021-12-01T10:20:45Z</time>
      </trkpt>
      <trkpt lat="43.13794" lon="6.31088">
        <ele>66</ele>
        <time>2021-12-01T10:20:56Z</time>
      </trkpt>
      <trkpt lat="43.13797" lon="6.31099">
        <ele>66</ele>
        <time>2021-12-01T10:20:57Z</time>
      </trkpt>
      <trkpt lat="43.13809" lon="6.31102">
        <ele>64</ele>
        <time>2021-12-01T10:20:59Z</time>
      </trkpt>
      <trkpt lat="43.13841" lon="6.31103">
        <ele>60</ele>
        <time>2021-12-01T10:21:05Z</time>
      </trkpt>
      <trkpt lat="43.13855" lon="6.31112">
        <ele>59</ele>
        <time>2021-12-01T10:21:08Z</time>
      </trkpt>
      <trkpt lat="43.13862" lon="6.31113">
        <ele>59</ele>
        <time>2021-12-01T10:21:09Z</time>
      </trkpt>
      <trkpt lat="43.1387" lon="6.31092">
        <ele>58</ele>
        <time>2021-12-01T10:21:12Z</time>
      </trkpt>
      <trkpt lat="43.13875" lon="6.31089">
        <ele>58</ele>
        <time>2021-12-01T10:21:13Z</time>
      </trkpt>
      <trkpt lat="43.13881" lon="6.31093">
        <ele>57</ele>
        <time>2021-12-01T10:21:14Z</time>
      </trkpt>
      <trkpt lat="43.13886" lon="6.31107">
        <ele>57</ele>
        <time>2021-12-01T10:21:16Z</time>
      </trkpt>
      <trkpt lat="43.13902" lon="6.31123">
        <ele>56</ele>
        <time>2021-12-01T10:21:20Z</time>
      </trkpt>
      <trkpt lat="43.13953" lon="6.31163">
        <ele>54</ele>
        <time>2021-12-01T10:21:30Z</time>
      </trkpt>
      <trkpt lat="43.13969" lon="6.31156">
        <ele>54</ele>
        <time>2021-12-01T10:21:33Z</time>
      </trkpt>
      <trkpt lat="43.13983" lon="6.31157">
        <ele>53</ele>
        <time>2021-12-01T10:21:36Z</time>
      </trkpt>
      <trkpt lat="43.14095" lon="6.31182">
        <ele>49</ele>
        <time>2021-12-01T10:21:56Z</time>
      </trkpt>
      <trkpt lat="43.14185" lon="6.31196">
        <ele>47</ele>
        <time>2021-12-01T10:22:12Z</time>
      </trkpt>
      <trkpt lat="43.1424" lon="6.31201">
        <ele>48</ele>
        <time>2021-12-01T10:22:22Z</time>
      </trkpt>
      <trkpt lat="43.14259" lon="6.31196">
        <ele>49</ele>
        <time>2021-12-01T10:22:25Z</time>
      </trkpt>
      <trkpt lat="43.14348" lon="6.31105">
        <ele>50</ele>
        <time>2021-12-01T10:22:45Z</time>
      </trkpt>
      <trkpt lat="43.14409" lon="6.31002">
        <ele>54</ele>
        <time>2021-12-01T10:23:02Z</time>
      </trkpt>
      <trkpt lat="43.14469" lon="6.30897">
        <ele>61</ele>
        <time>2021-12-01T10:23:20Z</time>
      </trkpt>
      <trkpt lat="43.14483" lon="6.3081">
        <ele>65</ele>
        <time>2021-12-01T10:23:31Z</time>
      </trkpt>
      <trkpt lat="43.14496" lon="6.30699">
        <ele>73</ele>
        <time>2021-12-01T10:23:46Z</time>
      </trkpt>
      <trkpt lat="43.14489" lon="6.30604">
        <ele>77</ele>
        <time>2021-12-01T10:23:58Z</time>
      </trkpt>
      <trkpt lat="43.14501" lon="6.30579">
        <ele>79</ele>
        <time>2021-12-01T10:24:02Z</time>
      </trkpt>
      <trkpt lat="43.1455" lon="6.30452">
        <ele>85</ele>
        <time>2021-12-01T10:24:21Z</time>
      </trkpt>
      <trkpt lat="43.14554" lon="6.30445">
        <ele>85</ele>
        <time>2021-12-01T10:24:22Z</time>
      </trkpt>
      <trkpt lat="43.1454" lon="6.30431">
        <ele>85</ele>
        <time>2021-12-01T10:24:25Z</time>
      </trkpt>
      <trkpt lat="43.14534" lon="6.30436">
        <ele>85</ele>
        <time>2021-12-01T10:24:26Z</time>
      </trkpt>
      <trkpt lat="43.14522" lon="6.30412">
        <ele>86</ele>
        <time>2021-12-01T10:24:30Z</time>
      </trkpt>
      <trkpt lat="43.14489" lon="6.30345">
        <ele>96</ele>
        <time>2021-12-01T10:24:41Z</time>
      </trkpt>
      <trkpt lat="43.14456" lon="6.3027">
        <ele>113</ele>
        <time>2021-12-01T10:24:52Z</time>
      </trkpt>
      <trkpt lat="43.14422" lon="6.30196">
        <ele>131</ele>
        <time>2021-12-01T10:25:03Z</time>
      </trkpt>
      <trkpt lat="43.14403" lon="6.3017">
        <ele>134</ele>
        <time>2021-12-01T10:25:08Z</time>
      </trkpt>
      <trkpt lat="43.14391" lon="6.30169">
        <ele>131</ele>
        <time>2021-12-01T10:25:10Z</time>
      </trkpt>
      <trkpt lat="43.14384" lon="6.30162">
        <ele>130</ele>
        <time>2021-12-01T10:25:12Z</time>
      </trkpt>
      <trkpt lat="43.14388" lon="6.30142">
        <ele>129</ele>
        <time>2021-12-01T10:25:14Z</time>
      </trkpt>
      <trkpt lat="43.14416" lon="6.30071">
        <ele>127</ele>
        <time>2021-12-01T10:25:25Z</time>
      </trkpt>
      <trkpt lat="43.14419" lon="6.30042">
        <ele>124</ele>
        <time>2021-12-01T10:25:29Z</time>
      </trkpt>
      <trkpt lat="43.14418" lon="6.30014">
        <ele>121</ele>
        <time>2021-12-01T10:25:32Z</time>
      </trkpt>
      <trkpt lat="43.14416" lon="6.29997">
        <ele>119</ele>
        <time>2021-12-01T10:25:35Z</time>
      </trkpt>
      <trkpt lat="43.14409" lon="6.29996">
        <ele>117</ele>
        <time>2021-12-01T10:25:36Z</time>
      </trkpt>
      <trkpt lat="43.14407" lon="6.30012">
        <ele>119</ele>
        <time>2021-12-01T10:25:38Z</time>
      </trkpt>
      <trkpt lat="43.14392" lon="6.30036">
        <ele>119</ele>
        <time>2021-12-01T10:25:42Z</time>
      </trkpt>
      <trkpt lat="43.14389" lon="6.30052">
        <ele>121</ele>
        <time>2021-12-01T10:25:44Z</time>
      </trkpt>
      <trkpt lat="43.14379" lon="6.30063">
        <ele>120</ele>
        <time>2021-12-01T10:25:46Z</time>
      </trkpt>
      <trkpt lat="43.14362" lon="6.30058">
        <ele>117</ele>
        <time>2021-12-01T10:25:50Z</time>
      </trkpt>
      <trkpt lat="43.14335" lon="6.30024">
        <ele>108</ele>
        <time>2021-12-01T10:25:56Z</time>
      </trkpt>
      <trkpt lat="43.14291" lon="6.30038">
        <ele>101</ele>
        <time>2021-12-01T10:26:04Z</time>
      </trkpt>
      <trkpt lat="43.14277" lon="6.30128">
        <ele>102</ele>
        <time>2021-12-01T10:26:16Z</time>
      </trkpt>
      <trkpt lat="43.1427" lon="6.30131">
        <ele>100</ele>
        <time>2021-12-01T10:26:17Z</time>
      </trkpt>
      <trkpt lat="43.14263" lon="6.30119">
        <ele>97</ele>
        <time>2021-12-01T10:26:19Z</time>
      </trkpt>
      <trkpt lat="43.14264" lon="6.30107">
        <ele>97</ele>
        <time>2021-12-01T10:26:21Z</time>
      </trkpt>
      <trkpt lat="43.14254" lon="6.30079">
        <ele>92</ele>
        <time>2021-12-01T10:26:25Z</time>
      </trkpt>
      <trkpt lat="43.14252" lon="6.30055">
        <ele>92</ele>
        <time>2021-12-01T10:26:28Z</time>
      </trkpt>
      <trkpt lat="43.14242" lon="6.30028">
        <ele>91</ele>
        <time>2021-12-01T10:26:32Z</time>
      </trkpt>
      <trkpt lat="43.14232" lon="6.30031">
        <ele>90</ele>
        <time>2021-12-01T10:26:34Z</time>
      </trkpt>
      <trkpt lat="43.14232" lon="6.30095">
        <ele>90</ele>
        <time>2021-12-01T10:26:42Z</time>
      </trkpt>
      <trkpt lat="43.1422" lon="6.30092">
        <ele>88</ele>
        <time>2021-12-01T10:26:44Z</time>
      </trkpt>
      <trkpt lat="43.14214" lon="6.30069">
        <ele>87</ele>
        <time>2021-12-01T10:26:48Z</time>
      </trkpt>
      <trkpt lat="43.14185" lon="6.30027">
        <ele>83</ele>
        <time>2021-12-01T10:26:55Z</time>
      </trkpt>
      <trkpt lat="43.14159" lon="6.30017">
        <ele>79</ele>
        <time>2021-12-01T10:27:00Z</time>
      </trkpt>
      <trkpt lat="43.14132" lon="6.29995">
        <ele>76</ele>
        <time>2021-12-01T10:27:05Z</time>
      </trkpt>
      <trkpt lat="43.14107" lon="6.29967">
        <ele>72</ele>
        <time>2021-12-01T10:27:11Z</time>
      </trkpt>
      <trkpt lat="43.14097" lon="6.29935">
        <ele>70</ele>
        <time>2021-12-01T10:27:16Z</time>
      </trkpt>
      <trkpt lat="43.14072" lon="6.29913">
        <ele>67</ele>
        <time>2021-12-01T10:27:21Z</time>
      </trkpt>
      <trkpt lat="43.14075" lon="6.29908">
        <ele>67</ele>
        <time>2021-12-01T10:27:22Z</time>
      </trkpt>
      <trkpt lat="43.14076" lon="6.299">
        <ele>67</ele>
        <time>2021-12-01T10:27:23Z</time>
      </trkpt>
      <trkpt lat="43.14061" lon="6.2988">
        <ele>66</ele>
        <time>2021-12-01T10:27:27Z</time>
      </trkpt>
      <trkpt lat="43.14054" lon="6.29847">
        <ele>63</ele>
        <time>2021-12-01T10:27:31Z</time>
      </trkpt>
      <trkpt lat="43.14056" lon="6.29828">
        <ele>62</ele>
        <time>2021-12-01T10:27:34Z</time>
      </trkpt>
      <trkpt lat="43.14072" lon="6.29805">
        <ele>62</ele>
        <time>2021-12-01T10:27:38Z</time>
      </trkpt>
      <trkpt lat="43.14116" lon="6.29774">
        <ele>62</ele>
        <time>2021-12-01T10:27:46Z</time>
      </trkpt>
      <trkpt lat="43.14142" lon="6.29773">
        <ele>64</ele>
        <time>2021-12-01T10:27:51Z</time>
      </trkpt>
      <trkpt lat="43.14157" lon="6.29745">
        <ele>61</ele>
        <time>2021-12-01T10:27:56Z</time>
      </trkpt>
      <trkpt lat="43.14177" lon="6.29731">
        <ele>61</ele>
        <time>2021-12-01T10:28:00Z</time>
      </trkpt>
      <trkpt lat="43.14192" lon="6.29732">
        <ele>63</ele>
        <time>2021-12-01T10:28:02Z</time>
      </trkpt>
      <trkpt lat="43.14206" lon="6.29743">
        <ele>65</ele>
        <time>2021-12-01T10:28:05Z</time>
      </trkpt>
      <trkpt lat="43.14223" lon="6.29769">
        <ele>68</ele>
        <time>2021-12-01T10:28:10Z</time>
      </trkpt>
      <trkpt lat="43.14232" lon="6.29768">
        <ele>69</ele>
        <time>2021-12-01T10:28:11Z</time>
      </trkpt>
      <trkpt lat="43.14238" lon="6.29759">
        <ele>69</ele>
        <time>2021-12-01T10:28:13Z</time>
      </trkpt>
      <trkpt lat="43.14233" lon="6.29715">
        <ele>65</ele>
        <time>2021-12-01T10:28:19Z</time>
      </trkpt>
      <trkpt lat="43.14233" lon="6.29679">
        <ele>63</ele>
        <time>2021-12-01T10:28:23Z</time>
      </trkpt>
      <trkpt lat="43.14254" lon="6.29639">
        <ele>64</ele>
        <time>2021-12-01T10:28:30Z</time>
      </trkpt>
      <trkpt lat="43.14256" lon="6.29616">
        <ele>63</ele>
        <time>2021-12-01T10:28:33Z</time>
      </trkpt>
      <trkpt lat="43.14261" lon="6.29582">
        <ele>62</ele>
        <time>2021-12-01T10:28:37Z</time>
      </trkpt>
      <trkpt lat="43.14251" lon="6.29511">
        <ele>61</ele>
        <time>2021-12-01T10:28:47Z</time>
      </trkpt>
      <trkpt lat="43.14244" lon="6.29496">
        <ele>60</ele>
        <time>2021-12-01T10:28:49Z</time>
      </trkpt>
      <trkpt lat="43.14244" lon="6.29468">
        <ele>58</ele>
        <time>2021-12-01T10:28:53Z</time>
      </trkpt>
      <trkpt lat="43.14254" lon="6.2945">
        <ele>57</ele>
        <time>2021-12-01T10:28:56Z</time>
      </trkpt>
      <trkpt lat="43.14271" lon="6.29447">
        <ele>57</ele>
        <time>2021-12-01T10:28:59Z</time>
      </trkpt>
      <trkpt lat="43.14295" lon="6.29462">
        <ele>57</ele>
        <time>2021-12-01T10:29:03Z</time>
      </trkpt>
      <trkpt lat="43.14314" lon="6.29496">
        <ele>59</ele>
        <time>2021-12-01T10:29:09Z</time>
      </trkpt>
      <trkpt lat="43.14336" lon="6.29528">
        <ele>61</ele>
        <time>2021-12-01T10:29:15Z</time>
      </trkpt>
      <trkpt lat="43.14341" lon="6.29559">
        <ele>64</ele>
        <time>2021-12-01T10:29:19Z</time>
      </trkpt>
      <trkpt lat="43.1437" lon="6.296">
        <ele>66</ele>
        <time>2021-12-01T10:29:26Z</time>
      </trkpt>
      <trkpt lat="43.144" lon="6.29593">
        <ele>62</ele>
        <time>2021-12-01T10:29:31Z</time>
      </trkpt>
      <trkpt lat="43.14449" lon="6.29601">
        <ele>63</ele>
        <time>2021-12-01T10:29:40Z</time>
      </trkpt>
      <trkpt lat="43.14471" lon="6.2961">
        <ele>66</ele>
        <time>2021-12-01T10:29:44Z</time>
      </trkpt>
      <trkpt lat="43.14498" lon="6.29631">
        <ele>69</ele>
        <time>2021-12-01T10:29:50Z</time>
      </trkpt>
      <trkpt lat="43.14506" lon="6.29635">
        <ele>70</ele>
        <time>2021-12-01T10:29:51Z</time>
      </trkpt>
      <trkpt lat="43.1451" lon="6.29631">
        <ele>69</ele>
        <time>2021-12-01T10:29:52Z</time>
      </trkpt>
      <trkpt lat="43.14509" lon="6.29622">
        <ele>68</ele>
        <time>2021-12-01T10:29:53Z</time>
      </trkpt>
      <trkpt lat="43.14485" lon="6.29566">
        <ele>61</ele>
        <time>2021-12-01T10:30:02Z</time>
      </trkpt>
      <trkpt lat="43.14481" lon="6.29549">
        <ele>60</ele>
        <time>2021-12-01T10:30:04Z</time>
      </trkpt>
      <trkpt lat="43.14487" lon="6.29532">
        <ele>59</ele>
        <time>2021-12-01T10:30:07Z</time>
      </trkpt>
      <trkpt lat="43.14494" lon="6.29525">
        <ele>58</ele>
        <time>2021-12-01T10:30:08Z</time>
      </trkpt>
      <trkpt lat="43.14533" lon="6.29529">
        <ele>59</ele>
        <time>2021-12-01T10:30:15Z</time>
      </trkpt>
      <trkpt lat="43.14546" lon="6.29535">
        <ele>60</ele>
        <time>2021-12-01T10:30:18Z</time>
      </trkpt>
      <trkpt lat="43.14566" lon="6.29556">
        <ele>62</ele>
        <time>2021-12-01T10:30:22Z</time>
      </trkpt>
      <trkpt lat="43.14576" lon="6.29552">
        <ele>61</ele>
        <time>2021-12-01T10:30:24Z</time>
      </trkpt>
      <trkpt lat="43.1459" lon="6.29556">
        <ele>61</ele>
        <time>2021-12-01T10:30:26Z</time>
      </trkpt>
      <trkpt lat="43.14613" lon="6.29588">
        <ele>61</ele>
        <time>2021-12-01T10:30:32Z</time>
      </trkpt>
      <trkpt lat="43.14639" lon="6.29647">
        <ele>66</ele>
        <time>2021-12-01T10:30:41Z</time>
      </trkpt>
      <trkpt lat="43.14654" lon="6.29677">
        <ele>68</ele>
        <time>2021-12-01T10:30:46Z</time>
      </trkpt>
      <trkpt lat="43.14675" lon="6.29691">
        <ele>66</ele>
        <time>2021-12-01T10:30:50Z</time>
      </trkpt>
      <trkpt lat="43.1469" lon="6.29708">
        <ele>64</ele>
        <time>2021-12-01T10:30:54Z</time>
      </trkpt>
      <trkpt lat="43.14704" lon="6.29739">
        <ele>64</ele>
        <time>2021-12-01T10:30:58Z</time>
      </trkpt>
      <trkpt lat="43.14708" lon="6.29762">
        <ele>64</ele>
        <time>2021-12-01T10:31:01Z</time>
      </trkpt>
      <trkpt lat="43.14704" lon="6.29778">
        <ele>65</ele>
        <time>2021-12-01T10:31:04Z</time>
      </trkpt>
      <trkpt lat="43.14703" lon="6.298">
        <ele>66</ele>
        <time>2021-12-01T10:31:06Z</time>
      </trkpt>
      <trkpt lat="43.14741" lon="6.29819">
        <ele>60</ele>
        <time>2021-12-01T10:31:14Z</time>
      </trkpt>
      <trkpt lat="43.14749" lon="6.29829">
        <ele>59</ele>
        <time>2021-12-01T10:31:16Z</time>
      </trkpt>
      <trkpt lat="43.14759" lon="6.29825">
        <ele>59</ele>
        <time>2021-12-01T10:31:17Z</time>
      </trkpt>
      <trkpt lat="43.14771" lon="6.29815">
        <ele>59</ele>
        <time>2021-12-01T10:31:20Z</time>
      </trkpt>
      <trkpt lat="43.14781" lon="6.29815">
        <ele>59</ele>
        <time>2021-12-01T10:31:22Z</time>
      </trkpt>
      <trkpt lat="43.14807" lon="6.2983">
        <ele>60</ele>
        <time>2021-12-01T10:31:27Z</time>
      </trkpt>
      <trkpt lat="43.14836" lon="6.29842">
        <ele>61</ele>
        <time>2021-12-01T10:31:32Z</time>
      </trkpt>
      <trkpt lat="43.14842" lon="6.29843">
        <ele>62</ele>
        <time>2021-12-01T10:31:33Z</time>
      </trkpt>
      <trkpt lat="43.14896" lon="6.29812">
        <ele>65</ele>
        <time>2021-12-01T10:31:44Z</time>
      </trkpt>
      <trkpt lat="43.14928" lon="6.29865">
        <ele>68</ele>
        <time>2021-12-01T10:31:53Z</time>
      </trkpt>
      <trkpt lat="43.14979" lon="6.29687">
        <ele>65</ele>
        <time>2021-12-01T10:32:17Z</time>
      </trkpt>
      <trkpt lat="43.14985" lon="6.2962">
        <ele>63</ele>
        <time>2021-12-01T10:32:26Z</time>
      </trkpt>
      <trkpt lat="43.14979" lon="6.29527">
        <ele>64</ele>
        <time>2021-12-01T10:32:38Z</time>
      </trkpt>
      <trkpt lat="43.1496" lon="6.29384">
        <ele>69</ele>
        <time>2021-12-01T10:32:57Z</time>
      </trkpt>
      <trkpt lat="43.14973" lon="6.29381">
        <ele>71</ele>
        <time>2021-12-01T10:32:59Z</time>
      </trkpt>
      <trkpt lat="43.14974" lon="6.29389">
        <ele>71</ele>
        <time>2021-12-01T10:33:01Z</time>
      </trkpt>
    </trkseg>
  </trk>
</gpx>